<?xml version='1.0' encoding='UTF-8'?>
<gpx version="1.1" creator="https://www.komoot.de" xmlns="http://www.topografix.com/GPX/1/1" xmlns:xsi="http://www.w3.org/2001/XMLSchema-instance" xsi:schemaLocation="http://www.topografix.com/GPX/1/1 http://www.topografix.com/GPX/1/1/gpx.xsd">
  <metadata>
    <name>Mühlbachtal Rundweg</name>
    <author>
      <link href="https://www.komoot.de">
        <text>komoot</text>
        <type>text/html</type>
      </link>
    </author>
  </metadata>
  <trk>
    <name>Mühlbachtal Rundweg</name>
    <trkseg>
      <trkpt lat="50.311527" lon="7.797157">
        <ele>88.179751</ele>
        <time>2022-12-04T12:46:56.795Z</time>
      </trkpt>
      <trkpt lat="50.311597" lon="7.797033">
        <ele>88.179751</ele>
        <time>2022-12-04T12:47:07.747Z</time>
      </trkpt>
      <trkpt lat="50.311688" lon="7.796983">
        <ele>88.179751</ele>
        <time>2022-12-04T12:47:14.739Z</time>
      </trkpt>
      <trkpt lat="50.311767" lon="7.796872">
        <ele>88.179751</ele>
        <time>2022-12-04T12:47:21.735Z</time>
      </trkpt>
      <trkpt lat="50.311803" lon="7.796738">
        <ele>88.179751</ele>
        <time>2022-12-04T12:47:30.740Z</time>
      </trkpt>
      <trkpt lat="50.311758" lon="7.796615">
        <ele>88.179751</ele>
        <time>2022-12-04T12:47:39.755Z</time>
      </trkpt>
      <trkpt lat="50.311678" lon="7.796545">
        <ele>88.179751</ele>
        <time>2022-12-04T12:47:48.743Z</time>
      </trkpt>
      <trkpt lat="50.311625" lon="7.796425">
        <ele>88.179751</ele>
        <time>2022-12-04T12:47:55.781Z</time>
      </trkpt>
      <trkpt lat="50.311565" lon="7.796302">
        <ele>88.179751</ele>
        <time>2022-12-04T12:48:02.744Z</time>
      </trkpt>
      <trkpt lat="50.311527" lon="7.796170">
        <ele>88.179751</ele>
        <time>2022-12-04T12:48:18.732Z</time>
      </trkpt>
      <trkpt lat="50.311458" lon="7.796078">
        <ele>88.297190</ele>
        <time>2022-12-04T12:48:45.749Z</time>
      </trkpt>
      <trkpt lat="50.311395" lon="7.795955">
        <ele>88.497396</ele>
        <time>2022-12-04T12:48:58.738Z</time>
      </trkpt>
      <trkpt lat="50.311340" lon="7.795830">
        <ele>88.690140</ele>
        <time>2022-12-04T12:49:09.721Z</time>
      </trkpt>
      <trkpt lat="50.311275" lon="7.795675">
        <ele>88.925592</ele>
        <time>2022-12-04T12:49:15.742Z</time>
      </trkpt>
      <trkpt lat="50.311328" lon="7.795555">
        <ele>89.110852</ele>
        <time>2022-12-04T12:49:28.738Z</time>
      </trkpt>
      <trkpt lat="50.311402" lon="7.795460">
        <ele>89.301112</ele>
        <time>2022-12-04T12:49:36.742Z</time>
      </trkpt>
      <trkpt lat="50.311482" lon="7.795373">
        <ele>89.494772</ele>
        <time>2022-12-04T12:49:43.741Z</time>
      </trkpt>
      <trkpt lat="50.311540" lon="7.795257">
        <ele>89.681837</ele>
        <time>2022-12-04T12:49:51.739Z</time>
      </trkpt>
      <trkpt lat="50.311625" lon="7.795345">
        <ele>89.884439</ele>
        <time>2022-12-04T12:49:55.735Z</time>
      </trkpt>
      <trkpt lat="50.311718" lon="7.795302">
        <ele>90.077242</ele>
        <time>2022-12-04T12:50:05.742Z</time>
      </trkpt>
      <trkpt lat="50.311718" lon="7.795152">
        <ele>90.267703</ele>
        <time>2022-12-04T12:50:09.736Z</time>
      </trkpt>
      <trkpt lat="50.311763" lon="7.795003">
        <ele>90.476984</ele>
        <time>2022-12-04T12:50:12.724Z</time>
      </trkpt>
      <trkpt lat="50.311840" lon="7.794908">
        <ele>90.671893</ele>
        <time>2022-12-04T12:50:18.709Z</time>
      </trkpt>
      <trkpt lat="50.311925" lon="7.794853">
        <ele>90.854757</ele>
        <time>2022-12-04T12:50:26.738Z</time>
      </trkpt>
      <trkpt lat="50.312018" lon="7.794880">
        <ele>91.042819</ele>
        <time>2022-12-04T12:50:29.728Z</time>
      </trkpt>
      <trkpt lat="50.312107" lon="7.794847">
        <ele>91.224670</ele>
        <time>2022-12-04T12:50:35.735Z</time>
      </trkpt>
      <trkpt lat="50.312193" lon="7.794785">
        <ele>91.412914</ele>
        <time>2022-12-04T12:50:42.734Z</time>
      </trkpt>
      <trkpt lat="50.312252" lon="7.794672">
        <ele>91.598245</ele>
        <time>2022-12-04T12:50:52.734Z</time>
      </trkpt>
      <trkpt lat="50.312322" lon="7.794572">
        <ele>91.718417</ele>
        <time>2022-12-04T12:50:57.731Z</time>
      </trkpt>
      <trkpt lat="50.312380" lon="7.794452">
        <ele>91.484492</ele>
        <time>2022-12-04T12:51:03.729Z</time>
      </trkpt>
      <trkpt lat="50.312455" lon="7.794342">
        <ele>91.234375</ele>
        <time>2022-12-04T12:51:10.734Z</time>
      </trkpt>
      <trkpt lat="50.312523" lon="7.794242">
        <ele>91.007319</ele>
        <time>2022-12-04T12:51:18.785Z</time>
      </trkpt>
      <trkpt lat="50.312628" lon="7.794192">
        <ele>90.740192</ele>
        <time>2022-12-04T12:51:23.736Z</time>
      </trkpt>
      <trkpt lat="50.312695" lon="7.794075">
        <ele>90.495923</ele>
        <time>2022-12-04T12:51:29.770Z</time>
      </trkpt>
      <trkpt lat="50.312757" lon="7.793960">
        <ele>90.261989</ele>
        <time>2022-12-04T12:51:39.734Z</time>
      </trkpt>
      <trkpt lat="50.312805" lon="7.793820">
        <ele>90.015001</ele>
        <time>2022-12-04T12:51:46.737Z</time>
      </trkpt>
      <trkpt lat="50.312857" lon="7.793695">
        <ele>89.783119</ele>
        <time>2022-12-04T12:51:54.732Z</time>
      </trkpt>
      <trkpt lat="50.312913" lon="7.793552">
        <ele>89.522382</ele>
        <time>2022-12-04T12:52:03.736Z</time>
      </trkpt>
      <trkpt lat="50.312988" lon="7.793440">
        <ele>89.270131</ele>
        <time>2022-12-04T12:52:09.737Z</time>
      </trkpt>
      <trkpt lat="50.313062" lon="7.793348">
        <ele>89.040151</ele>
        <time>2022-12-04T12:52:14.735Z</time>
      </trkpt>
      <trkpt lat="50.313098" lon="7.793210">
        <ele>88.808445</ele>
        <time>2022-12-04T12:52:22.736Z</time>
      </trkpt>
      <trkpt lat="50.313173" lon="7.793112">
        <ele>88.570690</ele>
        <time>2022-12-04T12:52:28.732Z</time>
      </trkpt>
      <trkpt lat="50.313225" lon="7.792977">
        <ele>88.325638</ele>
        <time>2022-12-04T12:52:33.732Z</time>
      </trkpt>
      <trkpt lat="50.313295" lon="7.792858">
        <ele>88.074159</ele>
        <time>2022-12-04T12:52:39.737Z</time>
      </trkpt>
      <trkpt lat="50.313387" lon="7.792777">
        <ele>87.817264</ele>
        <time>2022-12-04T12:52:46.746Z</time>
      </trkpt>
      <trkpt lat="50.313473" lon="7.792708">
        <ele>87.582064</ele>
        <time>2022-12-04T12:52:50.740Z</time>
      </trkpt>
      <trkpt lat="50.313540" lon="7.792608">
        <ele>87.385796</ele>
        <time>2022-12-04T12:52:58.782Z</time>
      </trkpt>
      <trkpt lat="50.313605" lon="7.792485">
        <ele>87.476058</ele>
        <time>2022-12-04T12:53:06.730Z</time>
      </trkpt>
      <trkpt lat="50.313640" lon="7.792343">
        <ele>87.562110</ele>
        <time>2022-12-04T12:53:11.738Z</time>
      </trkpt>
      <trkpt lat="50.313698" lon="7.792217">
        <ele>87.649923</ele>
        <time>2022-12-04T12:53:17.728Z</time>
      </trkpt>
      <trkpt lat="50.313743" lon="7.792073">
        <ele>87.740560</ele>
        <time>2022-12-04T12:53:24.735Z</time>
      </trkpt>
      <trkpt lat="50.313812" lon="7.791982">
        <ele>87.820425</ele>
        <time>2022-12-04T12:53:31.729Z</time>
      </trkpt>
      <trkpt lat="50.313873" lon="7.791868">
        <ele>87.904510</ele>
        <time>2022-12-04T12:53:39.794Z</time>
      </trkpt>
      <trkpt lat="50.313940" lon="7.791758">
        <ele>87.990452</ele>
        <time>2022-12-04T12:53:49.737Z</time>
      </trkpt>
      <trkpt lat="50.313998" lon="7.791625">
        <ele>88.081504</ele>
        <time>2022-12-04T12:53:55.731Z</time>
      </trkpt>
      <trkpt lat="50.314030" lon="7.791473">
        <ele>88.171987</ele>
        <time>2022-12-04T12:54:01.725Z</time>
      </trkpt>
      <trkpt lat="50.314067" lon="7.791330">
        <ele>88.259216</ele>
        <time>2022-12-04T12:54:10.733Z</time>
      </trkpt>
      <trkpt lat="50.314125" lon="7.791215">
        <ele>88.342063</ele>
        <time>2022-12-04T12:54:17.742Z</time>
      </trkpt>
      <trkpt lat="50.314180" lon="7.791102">
        <ele>88.422389</ele>
        <time>2022-12-04T12:54:23.733Z</time>
      </trkpt>
      <trkpt lat="50.314210" lon="7.790965">
        <ele>88.504269</ele>
        <time>2022-12-04T12:54:31.774Z</time>
      </trkpt>
      <trkpt lat="50.314262" lon="7.790842">
        <ele>88.587665</ele>
        <time>2022-12-04T12:54:40.732Z</time>
      </trkpt>
      <trkpt lat="50.314307" lon="7.790718">
        <ele>88.668298</ele>
        <time>2022-12-04T12:54:46.730Z</time>
      </trkpt>
      <trkpt lat="50.314340" lon="7.790580">
        <ele>88.751606</ele>
        <time>2022-12-04T12:54:53.736Z</time>
      </trkpt>
      <trkpt lat="50.314310" lon="7.790443">
        <ele>88.833486</ele>
        <time>2022-12-04T12:55:02.706Z</time>
      </trkpt>
      <trkpt lat="50.314317" lon="7.790297">
        <ele>88.916259</ele>
        <time>2022-12-04T12:55:38.728Z</time>
      </trkpt>
      <trkpt lat="50.314337" lon="7.790147">
        <ele>89.107292</ele>
        <time>2022-12-04T12:55:45.768Z</time>
      </trkpt>
      <trkpt lat="50.314343" lon="7.789985">
        <ele>89.494186</ele>
        <time>2022-12-04T12:55:52.793Z</time>
      </trkpt>
      <trkpt lat="50.314375" lon="7.789838">
        <ele>89.864472</ele>
        <time>2022-12-04T12:55:58.705Z</time>
      </trkpt>
      <trkpt lat="50.314353" lon="7.789697">
        <ele>90.210537</ele>
        <time>2022-12-04T12:56:07.737Z</time>
      </trkpt>
      <trkpt lat="50.314272" lon="7.789590">
        <ele>90.606194</ele>
        <time>2022-12-04T12:56:15.774Z</time>
      </trkpt>
      <trkpt lat="50.314180" lon="7.789590">
        <ele>90.949692</ele>
        <time>2022-12-04T12:56:20.731Z</time>
      </trkpt>
      <trkpt lat="50.314150" lon="7.789738">
        <ele>91.319910</ele>
        <time>2022-12-04T12:56:27.779Z</time>
      </trkpt>
      <trkpt lat="50.314163" lon="7.789885">
        <ele>91.673737</ele>
        <time>2022-12-04T12:56:36.735Z</time>
      </trkpt>
      <trkpt lat="50.314145" lon="7.790028">
        <ele>92.021244</ele>
        <time>2022-12-04T12:56:42.735Z</time>
      </trkpt>
      <trkpt lat="50.314203" lon="7.790160">
        <ele>92.403269</ele>
        <time>2022-12-04T12:56:53.728Z</time>
      </trkpt>
      <trkpt lat="50.314270" lon="7.790260">
        <ele>92.748846</ele>
        <time>2022-12-04T12:57:00.732Z</time>
      </trkpt>
      <trkpt lat="50.314210" lon="7.790380">
        <ele>93.112223</ele>
        <time>2022-12-04T12:57:07.725Z</time>
      </trkpt>
      <trkpt lat="50.314138" lon="7.790475">
        <ele>93.463748</ele>
        <time>2022-12-04T12:57:14.736Z</time>
      </trkpt>
      <trkpt lat="50.314047" lon="7.790413">
        <ele>93.834276</ele>
        <time>2022-12-04T12:57:29.735Z</time>
      </trkpt>
      <trkpt lat="50.313957" lon="7.790360">
        <ele>94.193280</ele>
        <time>2022-12-04T12:57:36.723Z</time>
      </trkpt>
      <trkpt lat="50.313858" lon="7.790325">
        <ele>94.572216</ele>
        <time>2022-12-04T12:57:43.734Z</time>
      </trkpt>
      <trkpt lat="50.313758" lon="7.790303">
        <ele>94.949249</ele>
        <time>2022-12-04T12:57:51.731Z</time>
      </trkpt>
      <trkpt lat="50.313662" lon="7.790312">
        <ele>95.308323</ele>
        <time>2022-12-04T12:58:00.732Z</time>
      </trkpt>
      <trkpt lat="50.313568" lon="7.790313">
        <ele>95.659296</ele>
        <time>2022-12-04T12:58:08.740Z</time>
      </trkpt>
      <trkpt lat="50.313473" lon="7.790343">
        <ele>95.974132</ele>
        <time>2022-12-04T12:58:17.792Z</time>
      </trkpt>
      <trkpt lat="50.313373" lon="7.790352">
        <ele>96.295668</ele>
        <time>2022-12-04T12:58:24.732Z</time>
      </trkpt>
      <trkpt lat="50.313275" lon="7.790335">
        <ele>96.612179</ele>
        <time>2022-12-04T12:58:31.733Z</time>
      </trkpt>
      <trkpt lat="50.313187" lon="7.790307">
        <ele>96.900437</ele>
        <time>2022-12-04T12:58:39.733Z</time>
      </trkpt>
      <trkpt lat="50.313092" lon="7.790282">
        <ele>97.209670</ele>
        <time>2022-12-04T12:58:50.742Z</time>
      </trkpt>
      <trkpt lat="50.313002" lon="7.790272">
        <ele>97.499302</ele>
        <time>2022-12-04T12:58:59.731Z</time>
      </trkpt>
      <trkpt lat="50.312900" lon="7.790242">
        <ele>97.832454</ele>
        <time>2022-12-04T12:59:05.739Z</time>
      </trkpt>
      <trkpt lat="50.312825" lon="7.790152">
        <ele>98.135771</ele>
        <time>2022-12-04T12:59:14.730Z</time>
      </trkpt>
      <trkpt lat="50.312767" lon="7.790033">
        <ele>98.442646</ele>
        <time>2022-12-04T12:59:21.734Z</time>
      </trkpt>
      <trkpt lat="50.312678" lon="7.789995">
        <ele>98.738771</ele>
        <time>2022-12-04T12:59:39.785Z</time>
      </trkpt>
      <trkpt lat="50.312587" lon="7.789942">
        <ele>99.050437</ele>
        <time>2022-12-04T12:59:55.733Z</time>
      </trkpt>
      <trkpt lat="50.312525" lon="7.789808">
        <ele>99.389652</ele>
        <time>2022-12-04T13:00:00.720Z</time>
      </trkpt>
      <trkpt lat="50.312520" lon="7.789665">
        <ele>99.683233</ele>
        <time>2022-12-04T13:00:05.713Z</time>
      </trkpt>
      <trkpt lat="50.312422" lon="7.789628">
        <ele>100.006834</ele>
        <time>2022-12-04T13:00:10.705Z</time>
      </trkpt>
      <trkpt lat="50.312338" lon="7.789535">
        <ele>100.337068</ele>
        <time>2022-12-04T13:00:26.733Z</time>
      </trkpt>
      <trkpt lat="50.312240" lon="7.789470">
        <ele>100.678711</ele>
        <time>2022-12-04T13:00:31.736Z</time>
      </trkpt>
      <trkpt lat="50.312158" lon="7.789387">
        <ele>100.992139</ele>
        <time>2022-12-04T13:00:38.731Z</time>
      </trkpt>
      <trkpt lat="50.312080" lon="7.789303">
        <ele>101.296022</ele>
        <time>2022-12-04T13:00:47.733Z</time>
      </trkpt>
      <trkpt lat="50.311997" lon="7.789243">
        <ele>101.247026</ele>
        <time>2022-12-04T13:00:55.737Z</time>
      </trkpt>
      <trkpt lat="50.311937" lon="7.789132">
        <ele>100.758255</ele>
        <time>2022-12-04T13:01:08.743Z</time>
      </trkpt>
      <trkpt lat="50.311895" lon="7.789007">
        <ele>100.283529</ele>
        <time>2022-12-04T13:01:14.774Z</time>
      </trkpt>
      <trkpt lat="50.311815" lon="7.788902">
        <ele>99.734152</ele>
        <time>2022-12-04T13:01:21.733Z</time>
      </trkpt>
      <trkpt lat="50.311725" lon="7.788877">
        <ele>99.253088</ele>
        <time>2022-12-04T13:01:28.736Z</time>
      </trkpt>
      <trkpt lat="50.311633" lon="7.788912">
        <ele>98.754808</ele>
        <time>2022-12-04T13:01:34.733Z</time>
      </trkpt>
      <trkpt lat="50.311530" lon="7.788815">
        <ele>98.122236</ele>
        <time>2022-12-04T13:01:44.727Z</time>
      </trkpt>
      <trkpt lat="50.311440" lon="7.788750">
        <ele>97.600614</ele>
        <time>2022-12-04T13:01:53.734Z</time>
      </trkpt>
      <trkpt lat="50.311350" lon="7.788728">
        <ele>97.121209</ele>
        <time>2022-12-04T13:02:01.738Z</time>
      </trkpt>
      <trkpt lat="50.311260" lon="7.788777">
        <ele>96.619725</ele>
        <time>2022-12-04T13:02:09.800Z</time>
      </trkpt>
      <trkpt lat="50.311188" lon="7.788687">
        <ele>96.134861</ele>
        <time>2022-12-04T13:02:15.734Z</time>
      </trkpt>
      <trkpt lat="50.311128" lon="7.788550">
        <ele>95.576522</ele>
        <time>2022-12-04T13:02:18.737Z</time>
      </trkpt>
      <trkpt lat="50.311058" lon="7.788388">
        <ele>94.919107</ele>
        <time>2022-12-04T13:02:21.731Z</time>
      </trkpt>
      <trkpt lat="50.310980" lon="7.788307">
        <ele>94.426524</ele>
        <time>2022-12-04T13:02:29.775Z</time>
      </trkpt>
      <trkpt lat="50.310883" lon="7.788277">
        <ele>93.906152</ele>
        <time>2022-12-04T13:02:39.734Z</time>
      </trkpt>
      <trkpt lat="50.310788" lon="7.788287">
        <ele>93.405039</ele>
        <time>2022-12-04T13:02:47.727Z</time>
      </trkpt>
      <trkpt lat="50.310698" lon="7.788250">
        <ele>92.915317</ele>
        <time>2022-12-04T13:02:53.775Z</time>
      </trkpt>
      <trkpt lat="50.310600" lon="7.788267">
        <ele>92.396389</ele>
        <time>2022-12-04T13:03:05.771Z</time>
      </trkpt>
      <trkpt lat="50.310505" lon="7.788252">
        <ele>92.034760</ele>
        <time>2022-12-04T13:03:11.728Z</time>
      </trkpt>
      <trkpt lat="50.310408" lon="7.788187">
        <ele>92.264734</ele>
        <time>2022-12-04T13:03:16.701Z</time>
      </trkpt>
      <trkpt lat="50.310388" lon="7.788042">
        <ele>92.471227</ele>
        <time>2022-12-04T13:03:27.707Z</time>
      </trkpt>
      <trkpt lat="50.310288" lon="7.788073">
        <ele>92.693423</ele>
        <time>2022-12-04T13:03:37.728Z</time>
      </trkpt>
      <trkpt lat="50.310207" lon="7.788158">
        <ele>92.905956</ele>
        <time>2022-12-04T13:03:45.738Z</time>
      </trkpt>
      <trkpt lat="50.310118" lon="7.788228">
        <ele>93.123043</ele>
        <time>2022-12-04T13:03:53.732Z</time>
      </trkpt>
      <trkpt lat="50.310043" lon="7.788342">
        <ele>93.350872</ele>
        <time>2022-12-04T13:04:00.731Z</time>
      </trkpt>
      <trkpt lat="50.309972" lon="7.788465">
        <ele>93.581663</ele>
        <time>2022-12-04T13:04:07.725Z</time>
      </trkpt>
      <trkpt lat="50.309912" lon="7.788573">
        <ele>93.780923</ele>
        <time>2022-12-04T13:04:17.733Z</time>
      </trkpt>
      <trkpt lat="50.309840" lon="7.788672">
        <ele>93.989777</ele>
        <time>2022-12-04T13:04:22.734Z</time>
      </trkpt>
      <trkpt lat="50.309748" lon="7.788707">
        <ele>94.196139</ele>
        <time>2022-12-04T13:04:29.731Z</time>
      </trkpt>
      <trkpt lat="50.309663" lon="7.788797">
        <ele>94.419793</ele>
        <time>2022-12-04T13:04:38.729Z</time>
      </trkpt>
      <trkpt lat="50.309618" lon="7.788920">
        <ele>94.617115</ele>
        <time>2022-12-04T13:04:43.730Z</time>
      </trkpt>
      <trkpt lat="50.309678" lon="7.789050">
        <ele>94.840388</ele>
        <time>2022-12-04T13:04:53.730Z</time>
      </trkpt>
      <trkpt lat="50.309610" lon="7.789153">
        <ele>95.046605</ele>
        <time>2022-12-04T13:05:00.725Z</time>
      </trkpt>
      <trkpt lat="50.309565" lon="7.789282">
        <ele>95.251217</ele>
        <time>2022-12-04T13:05:06.738Z</time>
      </trkpt>
      <trkpt lat="50.309513" lon="7.789407">
        <ele>95.458878</ele>
        <time>2022-12-04T13:05:13.730Z</time>
      </trkpt>
      <trkpt lat="50.309505" lon="7.789548">
        <ele>95.655926</ele>
        <time>2022-12-04T13:05:20.740Z</time>
      </trkpt>
      <trkpt lat="50.309445" lon="7.789702">
        <ele>95.907040</ele>
        <time>2022-12-04T13:05:27.736Z</time>
      </trkpt>
      <trkpt lat="50.309422" lon="7.789853">
        <ele>95.990197</ele>
        <time>2022-12-04T13:05:31.742Z</time>
      </trkpt>
      <trkpt lat="50.309372" lon="7.789982">
        <ele>96.066775</ele>
        <time>2022-12-04T13:05:37.733Z</time>
      </trkpt>
      <trkpt lat="50.309327" lon="7.790107">
        <ele>96.139594</ele>
        <time>2022-12-04T13:05:46.727Z</time>
      </trkpt>
      <trkpt lat="50.309308" lon="7.790245">
        <ele>96.211234</ele>
        <time>2022-12-04T13:05:52.732Z</time>
      </trkpt>
      <trkpt lat="50.309305" lon="7.790392">
        <ele>96.285871</ele>
        <time>2022-12-04T13:05:58.739Z</time>
      </trkpt>
      <trkpt lat="50.309258" lon="7.790517">
        <ele>96.359484</ele>
        <time>2022-12-04T13:07:21.752Z</time>
      </trkpt>
      <trkpt lat="50.309247" lon="7.790667">
        <ele>96.436105</ele>
        <time>2022-12-04T13:07:27.735Z</time>
      </trkpt>
      <trkpt lat="50.309150" lon="7.790725">
        <ele>96.518612</ele>
        <time>2022-12-04T13:07:36.729Z</time>
      </trkpt>
      <trkpt lat="50.309060" lon="7.790742">
        <ele>96.590646</ele>
        <time>2022-12-04T13:07:46.731Z</time>
      </trkpt>
      <trkpt lat="50.309067" lon="7.790600">
        <ele>96.662922</ele>
        <time>2022-12-04T13:08:07.784Z</time>
      </trkpt>
      <trkpt lat="50.309000" lon="7.790720">
        <ele>96.743811</ele>
        <time>2022-12-04T13:08:24.738Z</time>
      </trkpt>
      <trkpt lat="50.308902" lon="7.790832">
        <ele>96.840220</ele>
        <time>2022-12-04T13:08:48.788Z</time>
      </trkpt>
      <trkpt lat="50.308890" lon="7.790973">
        <ele>96.912407</ele>
        <time>2022-12-04T13:08:57.734Z</time>
      </trkpt>
      <trkpt lat="50.308812" lon="7.791092">
        <ele>96.998943</ele>
        <time>2022-12-04T13:09:04.730Z</time>
      </trkpt>
      <trkpt lat="50.308753" lon="7.791213">
        <ele>97.076200</ele>
        <time>2022-12-04T13:09:10.746Z</time>
      </trkpt>
      <trkpt lat="50.308742" lon="7.791382">
        <ele>97.162409</ele>
        <time>2022-12-04T13:09:20.735Z</time>
      </trkpt>
      <trkpt lat="50.308708" lon="7.791513">
        <ele>97.234169</ele>
        <time>2022-12-04T13:09:27.735Z</time>
      </trkpt>
      <trkpt lat="50.308675" lon="7.791665">
        <ele>97.315642</ele>
        <time>2022-12-04T13:09:36.736Z</time>
      </trkpt>
      <trkpt lat="50.308668" lon="7.791813">
        <ele>97.293031</ele>
        <time>2022-12-04T13:09:44.737Z</time>
      </trkpt>
      <trkpt lat="50.308605" lon="7.791943">
        <ele>97.206155</ele>
        <time>2022-12-04T13:09:52.729Z</time>
      </trkpt>
      <trkpt lat="50.308523" lon="7.792007">
        <ele>97.129781</ele>
        <time>2022-12-04T13:09:58.742Z</time>
      </trkpt>
      <trkpt lat="50.308432" lon="7.791928">
        <ele>97.043047</ele>
        <time>2022-12-04T13:10:03.775Z</time>
      </trkpt>
      <trkpt lat="50.308347" lon="7.791865">
        <ele>96.964656</ele>
        <time>2022-12-04T13:10:09.736Z</time>
      </trkpt>
      <trkpt lat="50.308247" lon="7.791822">
        <ele>96.878212</ele>
        <time>2022-12-04T13:10:19.724Z</time>
      </trkpt>
      <trkpt lat="50.308173" lon="7.791722">
        <ele>96.796731</ele>
        <time>2022-12-04T13:10:26.730Z</time>
      </trkpt>
      <trkpt lat="50.308093" lon="7.791648">
        <ele>96.719278</ele>
        <time>2022-12-04T13:10:32.735Z</time>
      </trkpt>
      <trkpt lat="50.308028" lon="7.791550">
        <ele>96.644060</ele>
        <time>2022-12-04T13:10:38.732Z</time>
      </trkpt>
      <trkpt lat="50.307950" lon="7.791463">
        <ele>96.564231</ele>
        <time>2022-12-04T13:10:47.730Z</time>
      </trkpt>
      <trkpt lat="50.307870" lon="7.791387">
        <ele>96.486231</ele>
        <time>2022-12-04T13:10:55.724Z</time>
      </trkpt>
      <trkpt lat="50.307795" lon="7.791272">
        <ele>96.398728</ele>
        <time>2022-12-04T13:11:02.728Z</time>
      </trkpt>
      <trkpt lat="50.307698" lon="7.791262">
        <ele>96.317696</ele>
        <time>2022-12-04T13:11:07.734Z</time>
      </trkpt>
      <trkpt lat="50.307602" lon="7.791233">
        <ele>96.236197</ele>
        <time>2022-12-04T13:11:16.733Z</time>
      </trkpt>
      <trkpt lat="50.307508" lon="7.791248">
        <ele>96.157435</ele>
        <time>2022-12-04T13:11:23.734Z</time>
      </trkpt>
      <trkpt lat="50.307408" lon="7.791260">
        <ele>96.073834</ele>
        <time>2022-12-04T13:11:30.730Z</time>
      </trkpt>
      <trkpt lat="50.307322" lon="7.791308">
        <ele>95.997728</ele>
        <time>2022-12-04T13:11:48.736Z</time>
      </trkpt>
      <trkpt lat="50.307285" lon="7.791445">
        <ele>95.918539</ele>
        <time>2022-12-04T13:11:53.732Z</time>
      </trkpt>
      <trkpt lat="50.307215" lon="7.791552">
        <ele>95.840323</ele>
        <time>2022-12-04T13:12:00.742Z</time>
      </trkpt>
      <trkpt lat="50.307130" lon="7.791607">
        <ele>95.800829</ele>
        <time>2022-12-04T13:12:07.736Z</time>
      </trkpt>
      <trkpt lat="50.307030" lon="7.791643">
        <ele>95.756768</ele>
        <time>2022-12-04T13:12:14.732Z</time>
      </trkpt>
      <trkpt lat="50.306965" lon="7.791747">
        <ele>95.716861</ele>
        <time>2022-12-04T13:12:21.771Z</time>
      </trkpt>
      <trkpt lat="50.306913" lon="7.791865">
        <ele>95.677543</ele>
        <time>2022-12-04T13:12:27.772Z</time>
      </trkpt>
      <trkpt lat="50.306835" lon="7.791973">
        <ele>95.632831</ele>
        <time>2022-12-04T13:12:34.737Z</time>
      </trkpt>
      <trkpt lat="50.306762" lon="7.792065">
        <ele>95.592591</ele>
        <time>2022-12-04T13:12:42.731Z</time>
      </trkpt>
      <trkpt lat="50.306692" lon="7.792167">
        <ele>95.551529</ele>
        <time>2022-12-04T13:12:48.735Z</time>
      </trkpt>
      <trkpt lat="50.306708" lon="7.792308">
        <ele>95.512254</ele>
        <time>2022-12-04T13:13:38.734Z</time>
      </trkpt>
      <trkpt lat="50.306612" lon="7.792365">
        <ele>95.468166</ele>
        <time>2022-12-04T13:14:02.745Z</time>
      </trkpt>
      <trkpt lat="50.306520" lon="7.792358">
        <ele>95.428614</ele>
        <time>2022-12-04T13:14:09.733Z</time>
      </trkpt>
      <trkpt lat="50.306437" lon="7.792448">
        <ele>95.385260</ele>
        <time>2022-12-04T13:14:20.734Z</time>
      </trkpt>
      <trkpt lat="50.306352" lon="7.792513">
        <ele>95.344640</ele>
        <time>2022-12-04T13:14:27.740Z</time>
      </trkpt>
      <trkpt lat="50.306262" lon="7.792567">
        <ele>95.303252</ele>
        <time>2022-12-04T13:14:35.733Z</time>
      </trkpt>
      <trkpt lat="50.306168" lon="7.792637">
        <ele>95.258555</ele>
        <time>2022-12-04T13:14:46.710Z</time>
      </trkpt>
      <trkpt lat="50.306077" lon="7.792700">
        <ele>95.215829</ele>
        <time>2022-12-04T13:14:50.713Z</time>
      </trkpt>
      <trkpt lat="50.305983" lon="7.792698">
        <ele>95.175461</ele>
        <time>2022-12-04T13:14:59.734Z</time>
      </trkpt>
      <trkpt lat="50.305883" lon="7.792682">
        <ele>95.132296</ele>
        <time>2022-12-04T13:15:06.736Z</time>
      </trkpt>
      <trkpt lat="50.305792" lon="7.792685">
        <ele>95.093211</ele>
        <time>2022-12-04T13:15:12.735Z</time>
      </trkpt>
      <trkpt lat="50.305707" lon="7.792732">
        <ele>95.305719</ele>
        <time>2022-12-04T13:15:18.779Z</time>
      </trkpt>
      <trkpt lat="50.305610" lon="7.792783">
        <ele>95.910933</ele>
        <time>2022-12-04T13:15:25.729Z</time>
      </trkpt>
      <trkpt lat="50.305517" lon="7.792815">
        <ele>96.474130</ele>
        <time>2022-12-04T13:15:34.728Z</time>
      </trkpt>
      <trkpt lat="50.305423" lon="7.792778">
        <ele>97.047415</ele>
        <time>2022-12-04T13:15:39.733Z</time>
      </trkpt>
      <trkpt lat="50.305315" lon="7.792760">
        <ele>97.689815</ele>
        <time>2022-12-04T13:15:44.738Z</time>
      </trkpt>
      <trkpt lat="50.305222" lon="7.792772">
        <ele>98.241750</ele>
        <time>2022-12-04T13:15:56.737Z</time>
      </trkpt>
      <trkpt lat="50.305125" lon="7.792797">
        <ele>98.823200</ele>
        <time>2022-12-04T13:16:01.761Z</time>
      </trkpt>
      <trkpt lat="50.305032" lon="7.792825">
        <ele>99.383348</ele>
        <time>2022-12-04T13:16:06.735Z</time>
      </trkpt>
      <trkpt lat="50.304952" lon="7.792898">
        <ele>99.931025</ele>
        <time>2022-12-04T13:16:10.734Z</time>
      </trkpt>
      <trkpt lat="50.304872" lon="7.792988">
        <ele>100.513688</ele>
        <time>2022-12-04T13:16:13.740Z</time>
      </trkpt>
      <trkpt lat="50.304790" lon="7.792893">
        <ele>101.117039</ele>
        <time>2022-12-04T13:16:30.746Z</time>
      </trkpt>
      <trkpt lat="50.304735" lon="7.792768">
        <ele>101.690466</ele>
        <time>2022-12-04T13:16:38.752Z</time>
      </trkpt>
      <trkpt lat="50.304725" lon="7.792607">
        <ele>102.301555</ele>
        <time>2022-12-04T13:16:47.735Z</time>
      </trkpt>
      <trkpt lat="50.304705" lon="7.792465">
        <ele>102.850886</ele>
        <time>2022-12-04T13:16:54.732Z</time>
      </trkpt>
      <trkpt lat="50.304695" lon="7.792305">
        <ele>103.458215</ele>
        <time>2022-12-04T13:17:00.724Z</time>
      </trkpt>
      <trkpt lat="50.304598" lon="7.792268">
        <ele>104.048726</ele>
        <time>2022-12-04T13:17:08.728Z</time>
      </trkpt>
      <trkpt lat="50.304497" lon="7.792258">
        <ele>104.647307</ele>
        <time>2022-12-04T13:17:14.737Z</time>
      </trkpt>
      <trkpt lat="50.304390" lon="7.792292">
        <ele>105.293086</ele>
        <time>2022-12-04T13:17:21.736Z</time>
      </trkpt>
      <trkpt lat="50.304322" lon="7.792417">
        <ele>105.610201</ele>
        <time>2022-12-04T13:17:23.737Z</time>
      </trkpt>
      <trkpt lat="50.304227" lon="7.792438">
        <ele>105.331751</ele>
        <time>2022-12-04T13:17:35.773Z</time>
      </trkpt>
      <trkpt lat="50.304145" lon="7.792520">
        <ele>105.049363</ele>
        <time>2022-12-04T13:17:40.733Z</time>
      </trkpt>
      <trkpt lat="50.304062" lon="7.792590">
        <ele>104.775749</ele>
        <time>2022-12-04T13:17:50.729Z</time>
      </trkpt>
      <trkpt lat="50.303963" lon="7.792585">
        <ele>104.488275</ele>
        <time>2022-12-04T13:18:00.734Z</time>
      </trkpt>
      <trkpt lat="50.303862" lon="7.792582">
        <ele>104.195093</ele>
        <time>2022-12-04T13:18:08.737Z</time>
      </trkpt>
      <trkpt lat="50.303762" lon="7.792657">
        <ele>103.873284</ele>
        <time>2022-12-04T13:18:13.735Z</time>
      </trkpt>
      <trkpt lat="50.303695" lon="7.792757">
        <ele>103.604630</ele>
        <time>2022-12-04T13:18:18.734Z</time>
      </trkpt>
      <trkpt lat="50.303637" lon="7.792875">
        <ele>103.328618</ele>
        <time>2022-12-04T13:18:23.771Z</time>
      </trkpt>
      <trkpt lat="50.303532" lon="7.792863">
        <ele>103.023069</ele>
        <time>2022-12-04T13:18:32.731Z</time>
      </trkpt>
      <trkpt lat="50.303437" lon="7.792820">
        <ele>102.736062</ele>
        <time>2022-12-04T13:18:38.735Z</time>
      </trkpt>
      <trkpt lat="50.303347" lon="7.792868">
        <ele>102.460118</ele>
        <time>2022-12-04T13:18:49.730Z</time>
      </trkpt>
      <trkpt lat="50.303257" lon="7.792892">
        <ele>102.195152</ele>
        <time>2022-12-04T13:18:56.736Z</time>
      </trkpt>
      <trkpt lat="50.303252" lon="7.793042">
        <ele>101.916711</ele>
        <time>2022-12-04T13:19:02.733Z</time>
      </trkpt>
      <trkpt lat="50.303165" lon="7.793140">
        <ele>101.605652</ele>
        <time>2022-12-04T13:19:07.739Z</time>
      </trkpt>
      <trkpt lat="50.303072" lon="7.793188">
        <ele>101.321452</ele>
        <time>2022-12-04T13:19:13.737Z</time>
      </trkpt>
      <trkpt lat="50.302975" lon="7.793165">
        <ele>101.036722</ele>
        <time>2022-12-04T13:19:23.734Z</time>
      </trkpt>
      <trkpt lat="50.302908" lon="7.793270">
        <ele>100.761589</ele>
        <time>2022-12-04T13:19:34.725Z</time>
      </trkpt>
      <trkpt lat="50.302823" lon="7.793365">
        <ele>100.494590</ele>
        <time>2022-12-04T13:19:41.728Z</time>
      </trkpt>
      <trkpt lat="50.302772" lon="7.793532">
        <ele>100.546444</ele>
        <time>2022-12-04T13:19:44.742Z</time>
      </trkpt>
      <trkpt lat="50.302725" lon="7.793665">
        <ele>100.589023</ele>
        <time>2022-12-04T13:19:48.731Z</time>
      </trkpt>
      <trkpt lat="50.302667" lon="7.793787">
        <ele>100.631626</ele>
        <time>2022-12-04T13:19:56.740Z</time>
      </trkpt>
      <trkpt lat="50.302605" lon="7.793893">
        <ele>100.671889</ele>
        <time>2022-12-04T13:20:02.732Z</time>
      </trkpt>
      <trkpt lat="50.302538" lon="7.793998">
        <ele>100.713465</ele>
        <time>2022-12-04T13:20:10.738Z</time>
      </trkpt>
      <trkpt lat="50.302483" lon="7.794128">
        <ele>100.757146</ele>
        <time>2022-12-04T13:20:18.734Z</time>
      </trkpt>
      <trkpt lat="50.302402" lon="7.794200">
        <ele>100.797997</ele>
        <time>2022-12-04T13:20:24.733Z</time>
      </trkpt>
      <trkpt lat="50.302315" lon="7.794245">
        <ele>100.838181</ele>
        <time>2022-12-04T13:20:29.731Z</time>
      </trkpt>
      <trkpt lat="50.302225" lon="7.794292">
        <ele>100.879790</ele>
        <time>2022-12-04T13:20:37.780Z</time>
      </trkpt>
      <trkpt lat="50.302140" lon="7.794375">
        <ele>100.923725</ele>
        <time>2022-12-04T13:20:49.782Z</time>
      </trkpt>
      <trkpt lat="50.302047" lon="7.794410">
        <ele>100.965674</ele>
        <time>2022-12-04T13:20:55.735Z</time>
      </trkpt>
      <trkpt lat="50.301957" lon="7.794408">
        <ele>101.005150</ele>
        <time>2022-12-04T13:21:03.741Z</time>
      </trkpt>
      <trkpt lat="50.301917" lon="7.794543">
        <ele>101.046839</ele>
        <time>2022-12-04T13:21:14.731Z</time>
      </trkpt>
      <trkpt lat="50.301823" lon="7.794580">
        <ele>101.089347</ele>
        <time>2022-12-04T13:21:24.739Z</time>
      </trkpt>
      <trkpt lat="50.301742" lon="7.794705">
        <ele>101.139229</ele>
        <time>2022-12-04T13:21:29.733Z</time>
      </trkpt>
      <trkpt lat="50.301682" lon="7.794828">
        <ele>101.182584</ele>
        <time>2022-12-04T13:21:34.729Z</time>
      </trkpt>
      <trkpt lat="50.301610" lon="7.794927">
        <ele>101.224611</ele>
        <time>2022-12-04T13:21:40.735Z</time>
      </trkpt>
      <trkpt lat="50.301552" lon="7.795063">
        <ele>101.270421</ele>
        <time>2022-12-04T13:21:45.735Z</time>
      </trkpt>
      <trkpt lat="50.301458" lon="7.795088">
        <ele>101.457345</ele>
        <time>2022-12-04T13:21:56.735Z</time>
      </trkpt>
      <trkpt lat="50.301418" lon="7.795220">
        <ele>101.675273</ele>
        <time>2022-12-04T13:22:08.734Z</time>
      </trkpt>
      <trkpt lat="50.301382" lon="7.795370">
        <ele>101.914289</ele>
        <time>2022-12-04T13:22:12.733Z</time>
      </trkpt>
      <trkpt lat="50.301325" lon="7.795480">
        <ele>102.125569</ele>
        <time>2022-12-04T13:22:19.733Z</time>
      </trkpt>
      <trkpt lat="50.301260" lon="7.795597">
        <ele>102.356864</ele>
        <time>2022-12-04T13:22:27.743Z</time>
      </trkpt>
      <trkpt lat="50.301195" lon="7.795717">
        <ele>102.591554</ele>
        <time>2022-12-04T13:22:34.738Z</time>
      </trkpt>
      <trkpt lat="50.301133" lon="7.795845">
        <ele>102.831171</ele>
        <time>2022-12-04T13:22:42.735Z</time>
      </trkpt>
      <trkpt lat="50.301050" lon="7.795912">
        <ele>103.049243</ele>
        <time>2022-12-04T13:22:50.731Z</time>
      </trkpt>
      <trkpt lat="50.300967" lon="7.795987">
        <ele>103.273036</ele>
        <time>2022-12-04T13:22:57.783Z</time>
      </trkpt>
      <trkpt lat="50.300880" lon="7.796088">
        <ele>103.525964</ele>
        <time>2022-12-04T13:23:04.738Z</time>
      </trkpt>
      <trkpt lat="50.300877" lon="7.796240">
        <ele>103.752802</ele>
        <time>2022-12-04T13:23:11.742Z</time>
      </trkpt>
      <trkpt lat="50.300862" lon="7.796397">
        <ele>103.989594</ele>
        <time>2022-12-04T13:23:17.730Z</time>
      </trkpt>
      <trkpt lat="50.300838" lon="7.796545">
        <ele>104.217360</ele>
        <time>2022-12-04T13:23:24.735Z</time>
      </trkpt>
      <trkpt lat="50.300840" lon="7.796690">
        <ele>104.433698</ele>
        <time>2022-12-04T13:23:32.733Z</time>
      </trkpt>
      <trkpt lat="50.300838" lon="7.796845">
        <ele>104.664950</ele>
        <time>2022-12-04T13:23:39.772Z</time>
      </trkpt>
      <trkpt lat="50.300837" lon="7.796997">
        <ele>104.891691</ele>
        <time>2022-12-04T13:23:46.730Z</time>
      </trkpt>
      <trkpt lat="50.300810" lon="7.797133">
        <ele>105.104127</ele>
        <time>2022-12-04T13:23:53.750Z</time>
      </trkpt>
      <trkpt lat="50.300798" lon="7.797283">
        <ele>105.329621</ele>
        <time>2022-12-04T13:24:00.731Z</time>
      </trkpt>
      <trkpt lat="50.300732" lon="7.797397">
        <ele>105.475858</ele>
        <time>2022-12-04T13:24:07.744Z</time>
      </trkpt>
      <trkpt lat="50.300645" lon="7.797435">
        <ele>105.467805</ele>
        <time>2022-12-04T13:24:13.738Z</time>
      </trkpt>
      <trkpt lat="50.300557" lon="7.797395">
        <ele>105.459636</ele>
        <time>2022-12-04T13:24:23.727Z</time>
      </trkpt>
      <trkpt lat="50.300462" lon="7.797373">
        <ele>105.451075</ele>
        <time>2022-12-04T13:24:33.750Z</time>
      </trkpt>
      <trkpt lat="50.300350" lon="7.797327">
        <ele>105.440752</ele>
        <time>2022-12-04T13:24:43.732Z</time>
      </trkpt>
      <trkpt lat="50.300265" lon="7.797267">
        <ele>105.432439</ele>
        <time>2022-12-04T13:24:50.746Z</time>
      </trkpt>
      <trkpt lat="50.300180" lon="7.797218">
        <ele>105.424364</ele>
        <time>2022-12-04T13:24:57.755Z</time>
      </trkpt>
      <trkpt lat="50.300098" lon="7.797155">
        <ele>105.416221</ele>
        <time>2022-12-04T13:25:05.732Z</time>
      </trkpt>
      <trkpt lat="50.299998" lon="7.797128">
        <ele>105.407174</ele>
        <time>2022-12-04T13:25:10.753Z</time>
      </trkpt>
      <trkpt lat="50.299913" lon="7.797072">
        <ele>105.398953</ele>
        <time>2022-12-04T13:25:16.728Z</time>
      </trkpt>
      <trkpt lat="50.299818" lon="7.797073">
        <ele>105.390483</ele>
        <time>2022-12-04T13:25:26.734Z</time>
      </trkpt>
      <trkpt lat="50.299727" lon="7.797120">
        <ele>105.381940</ele>
        <time>2022-12-04T13:25:35.733Z</time>
      </trkpt>
      <trkpt lat="50.299637" lon="7.797143">
        <ele>105.373811</ele>
        <time>2022-12-04T13:25:43.737Z</time>
      </trkpt>
      <trkpt lat="50.299517" lon="7.797325">
        <ele>105.358915</ele>
        <time>2022-12-04T13:27:03.762Z</time>
      </trkpt>
      <trkpt lat="50.299410" lon="7.797258">
        <ele>105.348641</ele>
        <time>2022-12-04T13:28:58.747Z</time>
      </trkpt>
      <trkpt lat="50.299572" lon="7.797255">
        <ele>105.334198</ele>
        <time>2022-12-04T13:29:55.737Z</time>
      </trkpt>
      <trkpt lat="50.299490" lon="7.797333">
        <ele>105.325644</ele>
        <time>2022-12-04T13:30:11.737Z</time>
      </trkpt>
      <trkpt lat="50.299363" lon="7.797293">
        <ele>105.531700</ele>
        <time>2022-12-04T13:32:25.746Z</time>
      </trkpt>
      <trkpt lat="50.299270" lon="7.797295">
        <ele>105.926681</ele>
        <time>2022-12-04T13:32:36.739Z</time>
      </trkpt>
      <trkpt lat="50.299168" lon="7.797308">
        <ele>106.361278</ele>
        <time>2022-12-04T13:32:44.748Z</time>
      </trkpt>
      <trkpt lat="50.299082" lon="7.797363">
        <ele>106.755796</ele>
        <time>2022-12-04T13:32:54.738Z</time>
      </trkpt>
      <trkpt lat="50.299000" lon="7.797445">
        <ele>107.169009</ele>
        <time>2022-12-04T13:33:03.779Z</time>
      </trkpt>
      <trkpt lat="50.298900" lon="7.797482">
        <ele>107.605380</ele>
        <time>2022-12-04T13:33:08.737Z</time>
      </trkpt>
      <trkpt lat="50.298808" lon="7.797522">
        <ele>108.010865</ele>
        <time>2022-12-04T13:33:13.744Z</time>
      </trkpt>
      <trkpt lat="50.298717" lon="7.797572">
        <ele>108.420428</ele>
        <time>2022-12-04T13:33:26.737Z</time>
      </trkpt>
      <trkpt lat="50.298647" lon="7.797692">
        <ele>108.861265</ele>
        <time>2022-12-04T13:33:33.732Z</time>
      </trkpt>
      <trkpt lat="50.298545" lon="7.797743">
        <ele>109.315987</ele>
        <time>2022-12-04T13:33:44.730Z</time>
      </trkpt>
      <trkpt lat="50.298480" lon="7.797872">
        <ele>109.761697</ele>
        <time>2022-12-04T13:33:50.726Z</time>
      </trkpt>
      <trkpt lat="50.298407" lon="7.797978">
        <ele>110.184535</ele>
        <time>2022-12-04T13:33:56.738Z</time>
      </trkpt>
      <trkpt lat="50.298367" lon="7.798107">
        <ele>110.573529</ele>
        <time>2022-12-04T13:34:01.732Z</time>
      </trkpt>
      <trkpt lat="50.298342" lon="7.798253">
        <ele>110.983574</ele>
        <time>2022-12-04T13:34:08.739Z</time>
      </trkpt>
      <trkpt lat="50.298343" lon="7.798403">
        <ele>111.390510</ele>
        <time>2022-12-04T13:34:21.755Z</time>
      </trkpt>
      <trkpt lat="50.298348" lon="7.798560">
        <ele>111.816942</ele>
        <time>2022-12-04T13:34:32.738Z</time>
      </trkpt>
      <trkpt lat="50.298307" lon="7.798685">
        <ele>112.198126</ele>
        <time>2022-12-04T13:34:43.740Z</time>
      </trkpt>
      <trkpt lat="50.298257" lon="7.798827">
        <ele>112.637983</ele>
        <time>2022-12-04T13:34:52.734Z</time>
      </trkpt>
      <trkpt lat="50.298178" lon="7.798907">
        <ele>113.029040</ele>
        <time>2022-12-04T13:34:58.735Z</time>
      </trkpt>
      <trkpt lat="50.298132" lon="7.799055">
        <ele>113.428441</ele>
        <time>2022-12-04T13:35:10.726Z</time>
      </trkpt>
      <trkpt lat="50.298095" lon="7.799193">
        <ele>113.791621</ele>
        <time>2022-12-04T13:35:17.736Z</time>
      </trkpt>
      <trkpt lat="50.298037" lon="7.799325">
        <ele>114.180401</ele>
        <time>2022-12-04T13:35:25.778Z</time>
      </trkpt>
      <trkpt lat="50.297962" lon="7.799417">
        <ele>114.542362</ele>
        <time>2022-12-04T13:35:33.758Z</time>
      </trkpt>
      <trkpt lat="50.297912" lon="7.799555">
        <ele>114.927358</ele>
        <time>2022-12-04T13:36:36.737Z</time>
      </trkpt>
      <trkpt lat="50.297837" lon="7.799662">
        <ele>115.312838</ele>
        <time>2022-12-04T13:36:43.740Z</time>
      </trkpt>
      <trkpt lat="50.297773" lon="7.799767">
        <ele>115.665020</ele>
        <time>2022-12-04T13:36:51.759Z</time>
      </trkpt>
      <trkpt lat="50.297708" lon="7.799898">
        <ele>116.067547</ele>
        <time>2022-12-04T13:36:58.810Z</time>
      </trkpt>
      <trkpt lat="50.297665" lon="7.800035">
        <ele>116.437965</ele>
        <time>2022-12-04T13:37:04.716Z</time>
      </trkpt>
      <trkpt lat="50.297577" lon="7.800085">
        <ele>116.793599</ele>
        <time>2022-12-04T13:37:12.728Z</time>
      </trkpt>
      <trkpt lat="50.297538" lon="7.800218">
        <ele>117.148727</ele>
        <time>2022-12-04T13:37:21.757Z</time>
      </trkpt>
      <trkpt lat="50.297475" lon="7.800322">
        <ele>117.496535</ele>
        <time>2022-12-04T13:37:32.738Z</time>
      </trkpt>
      <trkpt lat="50.297435" lon="7.800453">
        <ele>117.848881</ele>
        <time>2022-12-04T13:37:42.733Z</time>
      </trkpt>
      <trkpt lat="50.297367" lon="7.800573">
        <ele>118.238147</ele>
        <time>2022-12-04T13:37:47.730Z</time>
      </trkpt>
      <trkpt lat="50.297330" lon="7.800703">
        <ele>118.583513</ele>
        <time>2022-12-04T13:37:53.733Z</time>
      </trkpt>
      <trkpt lat="50.297245" lon="7.800807">
        <ele>118.993339</ele>
        <time>2022-12-04T13:38:00.774Z</time>
      </trkpt>
      <trkpt lat="50.297175" lon="7.800955">
        <ele>119.440220</ele>
        <time>2022-12-04T13:38:08.715Z</time>
      </trkpt>
      <trkpt lat="50.297168" lon="7.801098">
        <ele>119.788256</ele>
        <time>2022-12-04T13:38:18.726Z</time>
      </trkpt>
      <trkpt lat="50.297172" lon="7.801257">
        <ele>120.264469</ele>
        <time>2022-12-04T13:38:28.733Z</time>
      </trkpt>
      <trkpt lat="50.297153" lon="7.801400">
        <ele>120.701877</ele>
        <time>2022-12-04T13:38:36.729Z</time>
      </trkpt>
      <trkpt lat="50.297105" lon="7.801520">
        <ele>121.125880</ele>
        <time>2022-12-04T13:38:43.781Z</time>
      </trkpt>
      <trkpt lat="50.297060" lon="7.801652">
        <ele>121.573950</ele>
        <time>2022-12-04T13:38:51.757Z</time>
      </trkpt>
      <trkpt lat="50.297015" lon="7.801775">
        <ele>121.998432</ele>
        <time>2022-12-04T13:38:59.735Z</time>
      </trkpt>
      <trkpt lat="50.297030" lon="7.801917">
        <ele>122.429456</ele>
        <time>2022-12-04T13:39:08.736Z</time>
      </trkpt>
      <trkpt lat="50.296988" lon="7.802050">
        <ele>122.873762</ele>
        <time>2022-12-04T13:39:14.745Z</time>
      </trkpt>
      <trkpt lat="50.296957" lon="7.802187">
        <ele>123.309017</ele>
        <time>2022-12-04T13:39:21.783Z</time>
      </trkpt>
      <trkpt lat="50.296920" lon="7.802318">
        <ele>123.737960</ele>
        <time>2022-12-04T13:39:28.745Z</time>
      </trkpt>
      <trkpt lat="50.296892" lon="7.802460">
        <ele>124.183008</ele>
        <time>2022-12-04T13:39:36.734Z</time>
      </trkpt>
      <trkpt lat="50.296858" lon="7.802602">
        <ele>124.637149</ele>
        <time>2022-12-04T13:39:45.804Z</time>
      </trkpt>
      <trkpt lat="50.296818" lon="7.802742">
        <ele>125.096434</ele>
        <time>2022-12-04T13:39:56.736Z</time>
      </trkpt>
      <trkpt lat="50.296830" lon="7.802885">
        <ele>125.528359</ele>
        <time>2022-12-04T13:40:03.751Z</time>
      </trkpt>
      <trkpt lat="50.296817" lon="7.803033">
        <ele>125.975749</ele>
        <time>2022-12-04T13:40:11.733Z</time>
      </trkpt>
      <trkpt lat="50.296788" lon="7.803170">
        <ele>126.407965</ele>
        <time>2022-12-04T13:40:17.730Z</time>
      </trkpt>
      <trkpt lat="50.296800" lon="7.803315">
        <ele>126.845829</ele>
        <time>2022-12-04T13:40:26.736Z</time>
      </trkpt>
      <trkpt lat="50.296788" lon="7.803517">
        <ele>127.453374</ele>
        <time>2022-12-04T13:40:35.738Z</time>
      </trkpt>
      <trkpt lat="50.296782" lon="7.803663">
        <ele>127.891508</ele>
        <time>2022-12-04T13:40:38.745Z</time>
      </trkpt>
      <trkpt lat="50.296757" lon="7.803808">
        <ele>128.075583</ele>
        <time>2022-12-04T13:40:44.727Z</time>
      </trkpt>
      <trkpt lat="50.296802" lon="7.803943">
        <ele>127.519360</ele>
        <time>2022-12-04T13:40:53.737Z</time>
      </trkpt>
      <trkpt lat="50.296838" lon="7.804085">
        <ele>126.961310</ele>
        <time>2022-12-04T13:41:02.742Z</time>
      </trkpt>
      <trkpt lat="50.296817" lon="7.804225">
        <ele>126.436012</ele>
        <time>2022-12-04T13:41:12.742Z</time>
      </trkpt>
      <trkpt lat="50.296815" lon="7.804382">
        <ele>125.862411</ele>
        <time>2022-12-04T13:41:26.733Z</time>
      </trkpt>
      <trkpt lat="50.296833" lon="7.804522">
        <ele>125.340766</ele>
        <time>2022-12-04T13:41:32.737Z</time>
      </trkpt>
      <trkpt lat="50.296848" lon="7.804673">
        <ele>124.782567</ele>
        <time>2022-12-04T13:41:39.733Z</time>
      </trkpt>
      <trkpt lat="50.296877" lon="7.804820">
        <ele>124.220586</ele>
        <time>2022-12-04T13:41:54.739Z</time>
      </trkpt>
      <trkpt lat="50.296853" lon="7.804957">
        <ele>123.701679</ele>
        <time>2022-12-04T13:42:01.734Z</time>
      </trkpt>
      <trkpt lat="50.296872" lon="7.805095">
        <ele>123.186020</ele>
        <time>2022-12-04T13:42:11.730Z</time>
      </trkpt>
      <trkpt lat="50.296862" lon="7.805245">
        <ele>122.635127</ele>
        <time>2022-12-04T13:42:16.734Z</time>
      </trkpt>
      <trkpt lat="50.296890" lon="7.805397">
        <ele>122.057281</ele>
        <time>2022-12-04T13:42:24.735Z</time>
      </trkpt>
      <trkpt lat="50.296902" lon="7.805538">
        <ele>121.537689</ele>
        <time>2022-12-04T13:42:33.755Z</time>
      </trkpt>
      <trkpt lat="50.296908" lon="7.805695">
        <ele>120.963177</ele>
        <time>2022-12-04T13:42:38.739Z</time>
      </trkpt>
      <trkpt lat="50.296922" lon="7.805837">
        <ele>120.438342</ele>
        <time>2022-12-04T13:42:42.738Z</time>
      </trkpt>
      <trkpt lat="50.296958" lon="7.805970">
        <ele>119.910710</ele>
        <time>2022-12-04T13:42:47.780Z</time>
      </trkpt>
      <trkpt lat="50.297018" lon="7.806102">
        <ele>119.318940</ele>
        <time>2022-12-04T13:42:57.760Z</time>
      </trkpt>
      <trkpt lat="50.297072" lon="7.806217">
        <ele>118.797595</ele>
        <time>2022-12-04T13:43:04.736Z</time>
      </trkpt>
      <trkpt lat="50.297187" lon="7.806252">
        <ele>118.127701</ele>
        <time>2022-12-04T13:43:45.771Z</time>
      </trkpt>
      <trkpt lat="50.297120" lon="7.806425">
        <ele>118.082566</ele>
        <time>2022-12-04T13:44:47.746Z</time>
      </trkpt>
      <trkpt lat="50.297145" lon="7.806567">
        <ele>118.225708</ele>
        <time>2022-12-04T13:44:57.766Z</time>
      </trkpt>
      <trkpt lat="50.297162" lon="7.806708">
        <ele>118.365152</ele>
        <time>2022-12-04T13:45:03.761Z</time>
      </trkpt>
      <trkpt lat="50.297205" lon="7.806853">
        <ele>118.520508</ele>
        <time>2022-12-04T13:45:11.737Z</time>
      </trkpt>
      <trkpt lat="50.297227" lon="7.806990">
        <ele>118.657789</ele>
        <time>2022-12-04T13:45:18.741Z</time>
      </trkpt>
      <trkpt lat="50.297253" lon="7.807137">
        <ele>118.806019</ele>
        <time>2022-12-04T13:45:27.765Z</time>
      </trkpt>
      <trkpt lat="50.297278" lon="7.807280">
        <ele>118.950098</ele>
        <time>2022-12-04T13:45:37.782Z</time>
      </trkpt>
      <trkpt lat="50.297272" lon="7.807425">
        <ele>119.091306</ele>
        <time>2022-12-04T13:45:49.742Z</time>
      </trkpt>
      <trkpt lat="50.297230" lon="7.807552">
        <ele>119.230284</ele>
        <time>2022-12-04T13:45:56.731Z</time>
      </trkpt>
      <trkpt lat="50.297138" lon="7.807645">
        <ele>119.396887</ele>
        <time>2022-12-04T13:46:02.708Z</time>
      </trkpt>
      <trkpt lat="50.297152" lon="7.807805">
        <ele>119.553829</ele>
        <time>2022-12-04T13:46:09.715Z</time>
      </trkpt>
      <trkpt lat="50.297157" lon="7.807973">
        <ele>119.717270</ele>
        <time>2022-12-04T13:46:14.715Z</time>
      </trkpt>
      <trkpt lat="50.297065" lon="7.807932">
        <ele>119.862790</ele>
        <time>2022-12-04T13:46:23.777Z</time>
      </trkpt>
      <trkpt lat="50.296967" lon="7.807908">
        <ele>120.013690</ele>
        <time>2022-12-04T13:46:30.751Z</time>
      </trkpt>
      <trkpt lat="50.296873" lon="7.807947">
        <ele>120.161629</ele>
        <time>2022-12-04T13:46:39.769Z</time>
      </trkpt>
      <trkpt lat="50.296768" lon="7.807952">
        <ele>120.321438</ele>
        <time>2022-12-04T13:46:48.729Z</time>
      </trkpt>
      <trkpt lat="50.296675" lon="7.807975">
        <ele>120.464673</ele>
        <time>2022-12-04T13:46:54.737Z</time>
      </trkpt>
      <trkpt lat="50.296585" lon="7.808043">
        <ele>120.616703</ele>
        <time>2022-12-04T13:47:01.743Z</time>
      </trkpt>
      <trkpt lat="50.296495" lon="7.808068">
        <ele>120.776291</ele>
        <time>2022-12-04T13:47:10.735Z</time>
      </trkpt>
      <trkpt lat="50.296402" lon="7.808037">
        <ele>120.956840</ele>
        <time>2022-12-04T13:47:20.733Z</time>
      </trkpt>
      <trkpt lat="50.296307" lon="7.808033">
        <ele>121.137293</ele>
        <time>2022-12-04T13:47:26.739Z</time>
      </trkpt>
      <trkpt lat="50.296202" lon="7.807995">
        <ele>121.341927</ele>
        <time>2022-12-04T13:47:41.739Z</time>
      </trkpt>
      <trkpt lat="50.296123" lon="7.807922">
        <ele>121.516119</ele>
        <time>2022-12-04T13:47:49.727Z</time>
      </trkpt>
      <trkpt lat="50.296035" lon="7.807878">
        <ele>121.691532</ele>
        <time>2022-12-04T13:47:54.737Z</time>
      </trkpt>
      <trkpt lat="50.295943" lon="7.807855">
        <ele>121.868436</ele>
        <time>2022-12-04T13:48:00.738Z</time>
      </trkpt>
      <trkpt lat="50.295850" lon="7.807862">
        <ele>122.045230</ele>
        <time>2022-12-04T13:48:06.744Z</time>
      </trkpt>
      <trkpt lat="50.295762" lon="7.807893">
        <ele>122.216505</ele>
        <time>2022-12-04T13:48:16.741Z</time>
      </trkpt>
      <trkpt lat="50.295693" lon="7.807990">
        <ele>122.392602</ele>
        <time>2022-12-04T13:48:24.741Z</time>
      </trkpt>
      <trkpt lat="50.295615" lon="7.808077">
        <ele>122.574461</ele>
        <time>2022-12-04T13:48:31.737Z</time>
      </trkpt>
      <trkpt lat="50.295557" lon="7.808195">
        <ele>122.755062</ele>
        <time>2022-12-04T13:48:39.780Z</time>
      </trkpt>
      <trkpt lat="50.295440" lon="7.808377">
        <ele>123.068263</ele>
        <time>2022-12-04T13:49:48.743Z</time>
      </trkpt>
      <trkpt lat="50.295362" lon="7.808447">
        <ele>123.238984</ele>
        <time>2022-12-04T13:49:58.743Z</time>
      </trkpt>
      <trkpt lat="50.295282" lon="7.808520">
        <ele>123.414815</ele>
        <time>2022-12-04T13:50:12.738Z</time>
      </trkpt>
      <trkpt lat="50.295233" lon="7.808650">
        <ele>123.597910</ele>
        <time>2022-12-04T13:50:19.732Z</time>
      </trkpt>
      <trkpt lat="50.295225" lon="7.808798">
        <ele>123.778079</ele>
        <time>2022-12-04T13:50:24.742Z</time>
      </trkpt>
      <trkpt lat="50.295185" lon="7.808928">
        <ele>123.953110</ele>
        <time>2022-12-04T13:50:34.742Z</time>
      </trkpt>
      <trkpt lat="50.295117" lon="7.809023">
        <ele>123.910233</ele>
        <time>2022-12-04T13:50:45.762Z</time>
      </trkpt>
      <trkpt lat="50.295062" lon="7.809140">
        <ele>123.081516</ele>
        <time>2022-12-04T13:50:53.739Z</time>
      </trkpt>
      <trkpt lat="50.295065" lon="7.809282">
        <ele>122.270969</ele>
        <time>2022-12-04T13:51:06.742Z</time>
      </trkpt>
      <trkpt lat="50.295045" lon="7.809432">
        <ele>121.396785</ele>
        <time>2022-12-04T13:51:14.740Z</time>
      </trkpt>
      <trkpt lat="50.295032" lon="7.809580">
        <ele>120.544506</ele>
        <time>2022-12-04T13:51:22.737Z</time>
      </trkpt>
      <trkpt lat="50.295023" lon="7.809730">
        <ele>119.684996</ele>
        <time>2022-12-04T13:51:30.737Z</time>
      </trkpt>
      <trkpt lat="50.294997" lon="7.809883">
        <ele>118.781782</ele>
        <time>2022-12-04T13:51:40.734Z</time>
      </trkpt>
      <trkpt lat="50.294988" lon="7.810032">
        <ele>117.927950</ele>
        <time>2022-12-04T13:51:48.739Z</time>
      </trkpt>
      <trkpt lat="50.294997" lon="7.810178">
        <ele>117.091156</ele>
        <time>2022-12-04T13:51:57.754Z</time>
      </trkpt>
      <trkpt lat="50.295010" lon="7.810327">
        <ele>116.233225</ele>
        <time>2022-12-04T13:52:05.732Z</time>
      </trkpt>
      <trkpt lat="50.295023" lon="7.810477">
        <ele>115.369641</ele>
        <time>2022-12-04T13:52:13.782Z</time>
      </trkpt>
      <trkpt lat="50.295095" lon="7.810567">
        <ele>114.546811</ele>
        <time>2022-12-04T13:52:21.761Z</time>
      </trkpt>
      <trkpt lat="50.295195" lon="7.810585">
        <ele>113.647899</ele>
        <time>2022-12-04T13:52:26.732Z</time>
      </trkpt>
      <trkpt lat="50.295127" lon="7.810487">
        <ele>112.822467</ele>
        <time>2022-12-04T13:52:52.750Z</time>
      </trkpt>
      <trkpt lat="50.295098" lon="7.810625">
        <ele>111.993682</ele>
        <time>2022-12-04T13:53:03.759Z</time>
      </trkpt>
      <trkpt lat="50.295188" lon="7.810703">
        <ele>111.074995</ele>
        <time>2022-12-04T13:53:54.734Z</time>
      </trkpt>
      <trkpt lat="50.295232" lon="7.810575">
        <ele>110.245758</ele>
        <time>2022-12-04T13:54:13.733Z</time>
      </trkpt>
      <trkpt lat="50.295312" lon="7.810485">
        <ele>109.365972</ele>
        <time>2022-12-04T13:54:21.758Z</time>
      </trkpt>
      <trkpt lat="50.295395" lon="7.810430">
        <ele>108.561082</ele>
        <time>2022-12-04T13:54:27.755Z</time>
      </trkpt>
      <trkpt lat="50.295487" lon="7.810385">
        <ele>107.845768</ele>
        <time>2022-12-04T13:54:36.738Z</time>
      </trkpt>
      <trkpt lat="50.295577" lon="7.810435">
        <ele>107.373867</ele>
        <time>2022-12-04T13:54:44.737Z</time>
      </trkpt>
      <trkpt lat="50.295672" lon="7.810428">
        <ele>106.903916</ele>
        <time>2022-12-04T13:54:58.750Z</time>
      </trkpt>
      <trkpt lat="50.295725" lon="7.810312">
        <ele>106.453725</ele>
        <time>2022-12-04T13:55:12.741Z</time>
      </trkpt>
      <trkpt lat="50.295685" lon="7.810183">
        <ele>106.001079</ele>
        <time>2022-12-04T13:55:21.760Z</time>
      </trkpt>
      <trkpt lat="50.295668" lon="7.810023">
        <ele>105.489072</ele>
        <time>2022-12-04T13:55:30.741Z</time>
      </trkpt>
      <trkpt lat="50.295670" lon="7.809873">
        <ele>105.015467</ele>
        <time>2022-12-04T13:55:38.738Z</time>
      </trkpt>
      <trkpt lat="50.295647" lon="7.809733">
        <ele>104.559151</ele>
        <time>2022-12-04T13:55:44.782Z</time>
      </trkpt>
      <trkpt lat="50.295637" lon="7.809590">
        <ele>104.105049</ele>
        <time>2022-12-04T13:55:51.763Z</time>
      </trkpt>
      <trkpt lat="50.295630" lon="7.809443">
        <ele>103.639730</ele>
        <time>2022-12-04T13:55:59.743Z</time>
      </trkpt>
      <trkpt lat="50.295662" lon="7.809307">
        <ele>103.182226</ele>
        <time>2022-12-04T13:56:08.742Z</time>
      </trkpt>
      <trkpt lat="50.295627" lon="7.809102">
        <ele>102.512394</ele>
        <time>2022-12-04T13:56:30.752Z</time>
      </trkpt>
      <trkpt lat="50.295602" lon="7.808960">
        <ele>102.047434</ele>
        <time>2022-12-04T13:56:45.803Z</time>
      </trkpt>
      <trkpt lat="50.295772" lon="7.808770">
        <ele>101.015261</ele>
        <time>2022-12-04T13:58:12.743Z</time>
      </trkpt>
      <trkpt lat="50.295868" lon="7.808757">
        <ele>100.539117</ele>
        <time>2022-12-04T13:58:22.735Z</time>
      </trkpt>
      <trkpt lat="50.295968" lon="7.808758">
        <ele>100.044969</ele>
        <time>2022-12-04T13:58:30.740Z</time>
      </trkpt>
      <trkpt lat="50.296072" lon="7.808747">
        <ele>99.529894</ele>
        <time>2022-12-04T13:58:38.737Z</time>
      </trkpt>
      <trkpt lat="50.296172" lon="7.808757">
        <ele>99.154563</ele>
        <time>2022-12-04T13:58:47.739Z</time>
      </trkpt>
      <trkpt lat="50.296270" lon="7.808770">
        <ele>99.231602</ele>
        <time>2022-12-04T13:58:55.742Z</time>
      </trkpt>
      <trkpt lat="50.296360" lon="7.808780">
        <ele>99.302276</ele>
        <time>2022-12-04T13:59:03.785Z</time>
      </trkpt>
      <trkpt lat="50.296455" lon="7.808760">
        <ele>99.377359</ele>
        <time>2022-12-04T13:59:13.742Z</time>
      </trkpt>
      <trkpt lat="50.296548" lon="7.808792">
        <ele>99.451945</ele>
        <time>2022-12-04T13:59:21.737Z</time>
      </trkpt>
      <trkpt lat="50.296655" lon="7.808840">
        <ele>99.539131</ele>
        <time>2022-12-04T13:59:25.752Z</time>
      </trkpt>
      <trkpt lat="50.296748" lon="7.808878">
        <ele>99.614419</ele>
        <time>2022-12-04T13:59:33.778Z</time>
      </trkpt>
      <trkpt lat="50.296840" lon="7.808905">
        <ele>99.687737</ele>
        <time>2022-12-04T13:59:39.811Z</time>
      </trkpt>
      <trkpt lat="50.296937" lon="7.808918">
        <ele>99.763995</ele>
        <time>2022-12-04T13:59:45.785Z</time>
      </trkpt>
      <trkpt lat="50.297047" lon="7.808888">
        <ele>99.851456</ele>
        <time>2022-12-04T13:59:52.736Z</time>
      </trkpt>
      <trkpt lat="50.297152" lon="7.808872">
        <ele>99.934091</ele>
        <time>2022-12-04T13:59:58.747Z</time>
      </trkpt>
      <trkpt lat="50.297243" lon="7.808855">
        <ele>100.005877</ele>
        <time>2022-12-04T14:00:04.723Z</time>
      </trkpt>
      <trkpt lat="50.297342" lon="7.808875">
        <ele>100.084066</ele>
        <time>2022-12-04T14:00:09.741Z</time>
      </trkpt>
      <trkpt lat="50.297418" lon="7.808787">
        <ele>100.158112</ele>
        <time>2022-12-04T14:00:16.728Z</time>
      </trkpt>
      <trkpt lat="50.297363" lon="7.808453">
        <ele>100.330700</ele>
        <time>2022-12-04T14:00:23.723Z</time>
      </trkpt>
      <trkpt lat="50.297457" lon="7.808448">
        <ele>100.404373</ele>
        <time>2022-12-04T14:00:28.722Z</time>
      </trkpt>
      <trkpt lat="50.297517" lon="7.808342">
        <ele>100.475239</ele>
        <time>2022-12-04T14:00:34.726Z</time>
      </trkpt>
      <trkpt lat="50.297600" lon="7.808270">
        <ele>100.557905</ele>
        <time>2022-12-04T14:00:39.733Z</time>
      </trkpt>
      <trkpt lat="50.297680" lon="7.808182">
        <ele>100.887470</ele>
        <time>2022-12-04T14:00:45.762Z</time>
      </trkpt>
      <trkpt lat="50.297765" lon="7.808115">
        <ele>101.208243</ele>
        <time>2022-12-04T14:00:51.737Z</time>
      </trkpt>
      <trkpt lat="50.297783" lon="7.807963">
        <ele>101.541098</ele>
        <time>2022-12-04T14:00:58.743Z</time>
      </trkpt>
      <trkpt lat="50.297767" lon="7.807822">
        <ele>101.849444</ele>
        <time>2022-12-04T14:01:03.740Z</time>
      </trkpt>
      <trkpt lat="50.297745" lon="7.807682">
        <ele>102.159872</ele>
        <time>2022-12-04T14:01:14.738Z</time>
      </trkpt>
      <trkpt lat="50.297712" lon="7.807550">
        <ele>102.465078</ele>
        <time>2022-12-04T14:01:20.743Z</time>
      </trkpt>
      <trkpt lat="50.297717" lon="7.807408">
        <ele>102.771290</ele>
        <time>2022-12-04T14:01:27.744Z</time>
      </trkpt>
      <trkpt lat="50.297743" lon="7.807262">
        <ele>103.097637</ele>
        <time>2022-12-04T14:01:37.732Z</time>
      </trkpt>
      <trkpt lat="50.297725" lon="7.807112">
        <ele>103.426258</ele>
        <time>2022-12-04T14:01:43.805Z</time>
      </trkpt>
      <trkpt lat="50.297752" lon="7.806955">
        <ele>103.776339</ele>
        <time>2022-12-04T14:01:51.742Z</time>
      </trkpt>
      <trkpt lat="50.297788" lon="7.806808">
        <ele>104.115314</ele>
        <time>2022-12-04T14:01:59.741Z</time>
      </trkpt>
      <trkpt lat="50.297803" lon="7.806652">
        <ele>104.454989</ele>
        <time>2022-12-04T14:02:07.736Z</time>
      </trkpt>
      <trkpt lat="50.297837" lon="7.806517">
        <ele>104.767439</ele>
        <time>2022-12-04T14:02:12.743Z</time>
      </trkpt>
      <trkpt lat="50.297858" lon="7.806377">
        <ele>105.077078</ele>
        <time>2022-12-04T14:02:19.775Z</time>
      </trkpt>
      <trkpt lat="50.297825" lon="7.806233">
        <ele>105.406479</ele>
        <time>2022-12-04T14:02:26.743Z</time>
      </trkpt>
      <trkpt lat="50.297767" lon="7.806100">
        <ele>105.753215</ele>
        <time>2022-12-04T14:02:32.741Z</time>
      </trkpt>
      <trkpt lat="50.297742" lon="7.805962">
        <ele>106.062067</ele>
        <time>2022-12-04T14:02:40.740Z</time>
      </trkpt>
      <trkpt lat="50.297663" lon="7.805868">
        <ele>106.396535</ele>
        <time>2022-12-04T14:02:46.738Z</time>
      </trkpt>
      <trkpt lat="50.297648" lon="7.805700">
        <ele>106.605108</ele>
        <time>2022-12-04T14:02:52.738Z</time>
      </trkpt>
      <trkpt lat="50.297670" lon="7.805548">
        <ele>106.595212</ele>
        <time>2022-12-04T14:03:00.744Z</time>
      </trkpt>
      <trkpt lat="50.297730" lon="7.805427">
        <ele>106.585487</ele>
        <time>2022-12-04T14:03:12.749Z</time>
      </trkpt>
      <trkpt lat="50.297640" lon="7.805320">
        <ele>106.574255</ele>
        <time>2022-12-04T14:03:43.747Z</time>
      </trkpt>
      <trkpt lat="50.297545" lon="7.805255">
        <ele>106.563950</ele>
        <time>2022-12-04T14:03:44.739Z</time>
      </trkpt>
      <trkpt lat="50.297547" lon="7.805108">
        <ele>106.554615</ele>
        <time>2022-12-04T14:03:52.740Z</time>
      </trkpt>
      <trkpt lat="50.297602" lon="7.804983">
        <ele>106.544978</ele>
        <time>2022-12-04T14:03:59.781Z</time>
      </trkpt>
      <trkpt lat="50.297637" lon="7.804838">
        <ele>106.535136</ele>
        <time>2022-12-04T14:04:13.741Z</time>
      </trkpt>
      <trkpt lat="50.297652" lon="7.804695">
        <ele>106.525935</ele>
        <time>2022-12-04T14:04:22.743Z</time>
      </trkpt>
      <trkpt lat="50.297712" lon="7.804582">
        <ele>106.516606</ele>
        <time>2022-12-04T14:04:33.739Z</time>
      </trkpt>
      <trkpt lat="50.297727" lon="7.804428">
        <ele>106.506715</ele>
        <time>2022-12-04T14:04:41.740Z</time>
      </trkpt>
      <trkpt lat="50.297677" lon="7.804303">
        <ele>106.497352</ele>
        <time>2022-12-04T14:04:45.793Z</time>
      </trkpt>
      <trkpt lat="50.297633" lon="7.804178">
        <ele>106.488290</ele>
        <time>2022-12-04T14:04:51.784Z</time>
      </trkpt>
      <trkpt lat="50.297593" lon="7.804050">
        <ele>106.479243</ele>
        <time>2022-12-04T14:05:06.745Z</time>
      </trkpt>
      <trkpt lat="50.297615" lon="7.804188">
        <ele>106.470212</ele>
        <time>2022-12-04T14:05:26.725Z</time>
      </trkpt>
      <trkpt lat="50.297690" lon="7.804102">
        <ele>106.460972</ele>
        <time>2022-12-04T14:05:35.727Z</time>
      </trkpt>
      <trkpt lat="50.297733" lon="7.804233">
        <ele>106.451621</ele>
        <time>2022-12-04T14:05:45.751Z</time>
      </trkpt>
      <trkpt lat="50.297612" lon="7.804198">
        <ele>106.439391</ele>
        <time>2022-12-04T14:05:56.729Z</time>
      </trkpt>
      <trkpt lat="50.297728" lon="7.804153">
        <ele>106.488097</ele>
        <time>2022-12-04T14:11:12.725Z</time>
      </trkpt>
      <trkpt lat="50.297643" lon="7.804218">
        <ele>106.650640</ele>
        <time>2022-12-04T14:12:16.728Z</time>
      </trkpt>
      <trkpt lat="50.297560" lon="7.804162">
        <ele>106.805934</ele>
        <time>2022-12-04T14:12:30.723Z</time>
      </trkpt>
      <trkpt lat="50.297633" lon="7.804048">
        <ele>106.983104</ele>
        <time>2022-12-04T14:12:45.765Z</time>
      </trkpt>
      <trkpt lat="50.297558" lon="7.803953">
        <ele>107.148872</ele>
        <time>2022-12-04T14:12:52.735Z</time>
      </trkpt>
      <trkpt lat="50.297658" lon="7.803887">
        <ele>107.335340</ele>
        <time>2022-12-04T14:12:57.726Z</time>
      </trkpt>
      <trkpt lat="50.297620" lon="7.803745">
        <ele>107.504322</ele>
        <time>2022-12-04T14:13:12.815Z</time>
      </trkpt>
      <trkpt lat="50.297505" lon="7.803710">
        <ele>107.705617</ele>
        <time>2022-12-04T14:13:18.741Z</time>
      </trkpt>
      <trkpt lat="50.297455" lon="7.803592">
        <ele>107.861037</ele>
        <time>2022-12-04T14:13:23.784Z</time>
      </trkpt>
      <trkpt lat="50.297345" lon="7.803517">
        <ele>108.067190</ele>
        <time>2022-12-04T14:13:32.750Z</time>
      </trkpt>
      <trkpt lat="50.297262" lon="7.803462">
        <ele>108.222052</ele>
        <time>2022-12-04T14:13:36.737Z</time>
      </trkpt>
      <trkpt lat="50.297202" lon="7.803328">
        <ele>108.401664</ele>
        <time>2022-12-04T14:13:43.741Z</time>
      </trkpt>
      <trkpt lat="50.297167" lon="7.803193">
        <ele>108.561580</ele>
        <time>2022-12-04T14:13:51.745Z</time>
      </trkpt>
      <trkpt lat="50.297162" lon="7.803047">
        <ele>108.722060</ele>
        <time>2022-12-04T14:13:59.823Z</time>
      </trkpt>
      <trkpt lat="50.297195" lon="7.802880">
        <ele>108.913930</ele>
        <time>2022-12-04T14:14:04.747Z</time>
      </trkpt>
      <trkpt lat="50.297218" lon="7.802742">
        <ele>109.070470</ele>
        <time>2022-12-04T14:14:11.732Z</time>
      </trkpt>
      <trkpt lat="50.297223" lon="7.802587">
        <ele>109.240816</ele>
        <time>2022-12-04T14:14:18.747Z</time>
      </trkpt>
      <trkpt lat="50.297243" lon="7.802443">
        <ele>109.402564</ele>
        <time>2022-12-04T14:14:24.743Z</time>
      </trkpt>
      <trkpt lat="50.297305" lon="7.802338">
        <ele>109.298052</ele>
        <time>2022-12-04T14:14:32.744Z</time>
      </trkpt>
      <trkpt lat="50.297327" lon="7.802183">
        <ele>108.280172</ele>
        <time>2022-12-04T14:14:38.743Z</time>
      </trkpt>
      <trkpt lat="50.297292" lon="7.802020">
        <ele>107.177787</ele>
        <time>2022-12-04T14:14:44.737Z</time>
      </trkpt>
      <trkpt lat="50.297228" lon="7.801890">
        <ele>106.125631</ele>
        <time>2022-12-04T14:14:47.743Z</time>
      </trkpt>
      <trkpt lat="50.297300" lon="7.801798">
        <ele>105.192940</ele>
        <time>2022-12-04T14:14:57.779Z</time>
      </trkpt>
      <trkpt lat="50.297382" lon="7.801700">
        <ele>104.157637</ele>
        <time>2022-12-04T14:15:05.738Z</time>
      </trkpt>
      <trkpt lat="50.297485" lon="7.801700">
        <ele>103.123994</ele>
        <time>2022-12-04T14:15:09.804Z</time>
      </trkpt>
      <trkpt lat="50.297547" lon="7.801572">
        <ele>102.094218</ele>
        <time>2022-12-04T14:15:17.736Z</time>
      </trkpt>
      <trkpt lat="50.297635" lon="7.801522">
        <ele>101.154735</ele>
        <time>2022-12-04T14:15:22.754Z</time>
      </trkpt>
      <trkpt lat="50.297678" lon="7.801397">
        <ele>100.244609</ele>
        <time>2022-12-04T14:15:28.742Z</time>
      </trkpt>
      <trkpt lat="50.297703" lon="7.801257">
        <ele>99.312721</ele>
        <time>2022-12-04T14:15:34.739Z</time>
      </trkpt>
      <trkpt lat="50.297763" lon="7.801147">
        <ele>98.385463</ele>
        <time>2022-12-04T14:15:39.759Z</time>
      </trkpt>
      <trkpt lat="50.297858" lon="7.801112">
        <ele>97.406056</ele>
        <time>2022-12-04T14:15:47.736Z</time>
      </trkpt>
      <trkpt lat="50.297967" lon="7.801100">
        <ele>96.309499</ele>
        <time>2022-12-04T14:15:53.754Z</time>
      </trkpt>
      <trkpt lat="50.298070" lon="7.801087">
        <ele>95.272502</ele>
        <time>2022-12-04T14:15:58.741Z</time>
      </trkpt>
      <trkpt lat="50.298158" lon="7.801025">
        <ele>94.304072</ele>
        <time>2022-12-04T14:16:03.743Z</time>
      </trkpt>
      <trkpt lat="50.298223" lon="7.800913">
        <ele>93.334028</ele>
        <time>2022-12-04T14:16:10.744Z</time>
      </trkpt>
      <trkpt lat="50.298313" lon="7.800842">
        <ele>92.322644</ele>
        <time>2022-12-04T14:16:16.737Z</time>
      </trkpt>
      <trkpt lat="50.298398" lon="7.800773">
        <ele>91.479553</ele>
        <time>2022-12-04T14:16:24.747Z</time>
      </trkpt>
      <trkpt lat="50.298412" lon="7.800628">
        <ele>91.551004</ele>
        <time>2022-12-04T14:16:30.738Z</time>
      </trkpt>
      <trkpt lat="50.298513" lon="7.800627">
        <ele>91.628042</ele>
        <time>2022-12-04T14:16:39.804Z</time>
      </trkpt>
      <trkpt lat="50.298570" lon="7.800505">
        <ele>91.701686</ele>
        <time>2022-12-04T14:16:47.780Z</time>
      </trkpt>
      <trkpt lat="50.298680" lon="7.800452">
        <ele>91.789471</ele>
        <time>2022-12-04T14:16:56.716Z</time>
      </trkpt>
      <trkpt lat="50.298750" lon="7.800343">
        <ele>91.864777</ele>
        <time>2022-12-04T14:16:59.713Z</time>
      </trkpt>
      <trkpt lat="50.298835" lon="7.800430">
        <ele>91.942237</ele>
        <time>2022-12-04T14:17:02.717Z</time>
      </trkpt>
      <trkpt lat="50.298918" lon="7.800347">
        <ele>92.017358</ele>
        <time>2022-12-04T14:17:23.736Z</time>
      </trkpt>
      <trkpt lat="50.299010" lon="7.800325">
        <ele>92.088344</ele>
        <time>2022-12-04T14:17:28.782Z</time>
      </trkpt>
      <trkpt lat="50.299102" lon="7.800410">
        <ele>92.169825</ele>
        <time>2022-12-04T14:17:31.742Z</time>
      </trkpt>
      <trkpt lat="50.299197" lon="7.800448">
        <ele>92.244613</ele>
        <time>2022-12-04T14:17:36.735Z</time>
      </trkpt>
      <trkpt lat="50.299293" lon="7.800402">
        <ele>92.321189</ele>
        <time>2022-12-04T14:17:42.739Z</time>
      </trkpt>
      <trkpt lat="50.299357" lon="7.800287">
        <ele>92.395501</ele>
        <time>2022-12-04T14:17:53.741Z</time>
      </trkpt>
      <trkpt lat="50.299435" lon="7.800187">
        <ele>92.472399</ele>
        <time>2022-12-04T14:18:02.789Z</time>
      </trkpt>
      <trkpt lat="50.299550" lon="7.800297">
        <ele>92.575190</ele>
        <time>2022-12-04T14:18:30.744Z</time>
      </trkpt>
      <trkpt lat="50.299643" lon="7.800328">
        <ele>92.647715</ele>
        <time>2022-12-04T14:18:37.786Z</time>
      </trkpt>
      <trkpt lat="50.299735" lon="7.800355">
        <ele>92.719109</ele>
        <time>2022-12-04T14:18:47.737Z</time>
      </trkpt>
      <trkpt lat="50.299830" lon="7.800277">
        <ele>92.800930</ele>
        <time>2022-12-04T14:18:52.736Z</time>
      </trkpt>
      <trkpt lat="50.299920" lon="7.800293">
        <ele>92.817685</ele>
        <time>2022-12-04T14:19:01.789Z</time>
      </trkpt>
      <trkpt lat="50.300015" lon="7.800332">
        <ele>92.746823</ele>
        <time>2022-12-04T14:19:08.738Z</time>
      </trkpt>
      <trkpt lat="50.300123" lon="7.800290">
        <ele>92.666531</ele>
        <time>2022-12-04T14:19:13.782Z</time>
      </trkpt>
      <trkpt lat="50.300205" lon="7.800217">
        <ele>92.598470</ele>
        <time>2022-12-04T14:19:16.739Z</time>
      </trkpt>
      <trkpt lat="50.300300" lon="7.800250">
        <ele>92.528259</ele>
        <time>2022-12-04T14:19:24.736Z</time>
      </trkpt>
      <trkpt lat="50.300383" lon="7.800137">
        <ele>92.448896</ele>
        <time>2022-12-04T14:19:33.737Z</time>
      </trkpt>
      <trkpt lat="50.300470" lon="7.800098">
        <ele>92.383602</ele>
        <time>2022-12-04T14:19:40.734Z</time>
      </trkpt>
      <trkpt lat="50.300567" lon="7.800160">
        <ele>92.308006</ele>
        <time>2022-12-04T14:19:49.739Z</time>
      </trkpt>
      <trkpt lat="50.300667" lon="7.800153">
        <ele>92.235783</ele>
        <time>2022-12-04T14:19:55.732Z</time>
      </trkpt>
      <trkpt lat="50.300768" lon="7.800173">
        <ele>92.162329</ele>
        <time>2022-12-04T14:20:00.745Z</time>
      </trkpt>
      <trkpt lat="50.300860" lon="7.800157">
        <ele>92.095542</ele>
        <time>2022-12-04T14:20:10.740Z</time>
      </trkpt>
      <trkpt lat="50.300953" lon="7.800182">
        <ele>92.027459</ele>
        <time>2022-12-04T14:20:23.738Z</time>
      </trkpt>
      <trkpt lat="50.301048" lon="7.800155">
        <ele>91.957795</ele>
        <time>2022-12-04T14:20:28.814Z</time>
      </trkpt>
      <trkpt lat="50.301138" lon="7.800160">
        <ele>91.892818</ele>
        <time>2022-12-04T14:20:34.749Z</time>
      </trkpt>
      <trkpt lat="50.301225" lon="7.800082">
        <ele>91.820481</ele>
        <time>2022-12-04T14:20:39.740Z</time>
      </trkpt>
      <trkpt lat="50.301312" lon="7.799992">
        <ele>91.745244</ele>
        <time>2022-12-04T14:20:45.781Z</time>
      </trkpt>
      <trkpt lat="50.301397" lon="7.799942">
        <ele>91.679729</ele>
        <time>2022-12-04T14:20:56.744Z</time>
      </trkpt>
      <trkpt lat="50.301490" lon="7.799913">
        <ele>91.611310</ele>
        <time>2022-12-04T14:21:01.734Z</time>
      </trkpt>
      <trkpt lat="50.301582" lon="7.799927">
        <ele>91.543371</ele>
        <time>2022-12-04T14:21:06.740Z</time>
      </trkpt>
      <trkpt lat="50.301677" lon="7.799902">
        <ele>91.359866</ele>
        <time>2022-12-04T14:21:11.744Z</time>
      </trkpt>
      <trkpt lat="50.301780" lon="7.799872">
        <ele>91.160293</ele>
        <time>2022-12-04T14:21:18.740Z</time>
      </trkpt>
      <trkpt lat="50.301885" lon="7.799863">
        <ele>90.959978</ele>
        <time>2022-12-04T14:21:24.742Z</time>
      </trkpt>
      <trkpt lat="50.301975" lon="7.799818">
        <ele>90.780005</ele>
        <time>2022-12-04T14:21:33.743Z</time>
      </trkpt>
      <trkpt lat="50.302068" lon="7.799792">
        <ele>90.600046</ele>
        <time>2022-12-04T14:21:37.739Z</time>
      </trkpt>
      <trkpt lat="50.302148" lon="7.799718">
        <ele>90.423041</ele>
        <time>2022-12-04T14:21:44.742Z</time>
      </trkpt>
      <trkpt lat="50.302133" lon="7.799560">
        <ele>90.228684</ele>
        <time>2022-12-04T14:21:48.741Z</time>
      </trkpt>
      <trkpt lat="50.302210" lon="7.799473">
        <ele>90.047798</ele>
        <time>2022-12-04T14:21:55.739Z</time>
      </trkpt>
      <trkpt lat="50.302312" lon="7.799510">
        <ele>89.848349</ele>
        <time>2022-12-04T14:22:02.741Z</time>
      </trkpt>
      <trkpt lat="50.302410" lon="7.799532">
        <ele>89.659759</ele>
        <time>2022-12-04T14:22:06.741Z</time>
      </trkpt>
      <trkpt lat="50.302503" lon="7.799518">
        <ele>89.481785</ele>
        <time>2022-12-04T14:22:11.735Z</time>
      </trkpt>
      <trkpt lat="50.302595" lon="7.799473">
        <ele>89.298179</ele>
        <time>2022-12-04T14:22:17.743Z</time>
      </trkpt>
      <trkpt lat="50.302640" lon="7.799330">
        <ele>89.104217</ele>
        <time>2022-12-04T14:22:22.741Z</time>
      </trkpt>
      <trkpt lat="50.302673" lon="7.799180">
        <ele>88.911185</ele>
        <time>2022-12-04T14:22:27.740Z</time>
      </trkpt>
      <trkpt lat="50.302770" lon="7.799103">
        <ele>88.704015</ele>
        <time>2022-12-04T14:22:35.733Z</time>
      </trkpt>
      <trkpt lat="50.302857" lon="7.799060">
        <ele>88.530225</ele>
        <time>2022-12-04T14:22:40.737Z</time>
      </trkpt>
      <trkpt lat="50.302912" lon="7.798947">
        <ele>88.357366</ele>
        <time>2022-12-04T14:22:46.737Z</time>
      </trkpt>
      <trkpt lat="50.303007" lon="7.798922">
        <ele>88.173861</ele>
        <time>2022-12-04T14:22:55.752Z</time>
      </trkpt>
      <trkpt lat="50.303082" lon="7.798832">
        <ele>88.910449</ele>
        <time>2022-12-04T14:23:04.739Z</time>
      </trkpt>
      <trkpt lat="50.303158" lon="7.798743">
        <ele>90.052506</ele>
        <time>2022-12-04T14:23:12.730Z</time>
      </trkpt>
      <trkpt lat="50.303227" lon="7.798618">
        <ele>91.322321</ele>
        <time>2022-12-04T14:23:18.737Z</time>
      </trkpt>
      <trkpt lat="50.303298" lon="7.798505">
        <ele>92.540620</ele>
        <time>2022-12-04T14:23:23.743Z</time>
      </trkpt>
      <trkpt lat="50.303380" lon="7.798435">
        <ele>93.664497</ele>
        <time>2022-12-04T14:23:29.741Z</time>
      </trkpt>
      <trkpt lat="50.303430" lon="7.798297">
        <ele>94.883923</ele>
        <time>2022-12-04T14:23:41.751Z</time>
      </trkpt>
      <trkpt lat="50.303422" lon="7.798122">
        <ele>96.232402</ele>
        <time>2022-12-04T14:23:45.738Z</time>
      </trkpt>
      <trkpt lat="50.303520" lon="7.798090">
        <ele>97.437041</ele>
        <time>2022-12-04T14:23:54.731Z</time>
      </trkpt>
      <trkpt lat="50.303548" lon="7.797937">
        <ele>98.660303</ele>
        <time>2022-12-04T14:24:01.733Z</time>
      </trkpt>
      <trkpt lat="50.303645" lon="7.797923">
        <ele>99.832482</ele>
        <time>2022-12-04T14:24:06.737Z</time>
      </trkpt>
      <trkpt lat="50.303740" lon="7.797897">
        <ele>100.992981</ele>
        <time>2022-12-04T14:24:26.741Z</time>
      </trkpt>
      <trkpt lat="50.303742" lon="7.797755">
        <ele>102.084642</ele>
        <time>2022-12-04T14:24:55.741Z</time>
      </trkpt>
      <trkpt lat="50.303792" lon="7.797605">
        <ele>103.385079</ele>
        <time>2022-12-04T14:25:00.736Z</time>
      </trkpt>
      <trkpt lat="50.303882" lon="7.797567">
        <ele>104.506767</ele>
        <time>2022-12-04T14:25:10.738Z</time>
      </trkpt>
      <trkpt lat="50.303972" lon="7.797510">
        <ele>105.675017</ele>
        <time>2022-12-04T14:25:17.734Z</time>
      </trkpt>
      <trkpt lat="50.304055" lon="7.797457">
        <ele>106.753657</ele>
        <time>2022-12-04T14:25:27.737Z</time>
      </trkpt>
      <trkpt lat="50.304150" lon="7.797422">
        <ele>107.928045</ele>
        <time>2022-12-04T14:25:33.741Z</time>
      </trkpt>
      <trkpt lat="50.304248" lon="7.797420">
        <ele>109.107409</ele>
        <time>2022-12-04T14:25:40.753Z</time>
      </trkpt>
      <trkpt lat="50.304347" lon="7.797418">
        <ele>110.188900</ele>
        <time>2022-12-04T14:25:53.777Z</time>
      </trkpt>
      <trkpt lat="50.304442" lon="7.797398">
        <ele>111.105869</ele>
        <time>2022-12-04T14:26:02.749Z</time>
      </trkpt>
      <trkpt lat="50.304552" lon="7.797425">
        <ele>112.171005</ele>
        <time>2022-12-04T14:26:08.737Z</time>
      </trkpt>
      <trkpt lat="50.304682" lon="7.797380">
        <ele>113.444644</ele>
        <time>2022-12-04T14:26:11.738Z</time>
      </trkpt>
      <trkpt lat="50.304767" lon="7.797323">
        <ele>114.329216</ele>
        <time>2022-12-04T14:26:16.738Z</time>
      </trkpt>
      <trkpt lat="50.304843" lon="7.797245">
        <ele>115.198527</ele>
        <time>2022-12-04T14:26:21.731Z</time>
      </trkpt>
      <trkpt lat="50.304928" lon="7.797148">
        <ele>116.204723</ele>
        <time>2022-12-04T14:26:26.740Z</time>
      </trkpt>
      <trkpt lat="50.305015" lon="7.797198">
        <ele>117.091281</ele>
        <time>2022-12-04T14:26:34.742Z</time>
      </trkpt>
      <trkpt lat="50.305127" lon="7.797240">
        <ele>118.192999</ele>
        <time>2022-12-04T14:26:38.744Z</time>
      </trkpt>
      <trkpt lat="50.305217" lon="7.797275">
        <ele>119.080119</ele>
        <time>2022-12-04T14:27:00.736Z</time>
      </trkpt>
      <trkpt lat="50.305310" lon="7.797220">
        <ele>120.031127</ele>
        <time>2022-12-04T14:27:07.742Z</time>
      </trkpt>
      <trkpt lat="50.305407" lon="7.797142">
        <ele>121.074276</ele>
        <time>2022-12-04T14:27:14.739Z</time>
      </trkpt>
      <trkpt lat="50.305483" lon="7.797030">
        <ele>122.072701</ele>
        <time>2022-12-04T14:27:17.748Z</time>
      </trkpt>
      <trkpt lat="50.305555" lon="7.797133">
        <ele>123.005675</ele>
        <time>2022-12-04T14:27:23.741Z</time>
      </trkpt>
      <trkpt lat="50.305632" lon="7.797022">
        <ele>124.006937</ele>
        <time>2022-12-04T14:27:30.739Z</time>
      </trkpt>
      <trkpt lat="50.305755" lon="7.797107">
        <ele>125.293095</ele>
        <time>2022-12-04T14:27:45.756Z</time>
      </trkpt>
      <trkpt lat="50.305865" lon="7.797150">
        <ele>126.377679</ele>
        <time>2022-12-04T14:27:48.742Z</time>
      </trkpt>
      <trkpt lat="50.305987" lon="7.797175">
        <ele>125.784405</ele>
        <time>2022-12-04T14:28:05.748Z</time>
      </trkpt>
      <trkpt lat="50.306090" lon="7.797167">
        <ele>123.789459</ele>
        <time>2022-12-04T14:28:08.772Z</time>
      </trkpt>
      <trkpt lat="50.306222" lon="7.797175">
        <ele>121.234057</ele>
        <time>2022-12-04T14:28:11.739Z</time>
      </trkpt>
      <trkpt lat="50.306322" lon="7.797103">
        <ele>119.104862</ele>
        <time>2022-12-04T14:28:14.743Z</time>
      </trkpt>
      <trkpt lat="50.306390" lon="7.796992">
        <ele>117.204562</ele>
        <time>2022-12-04T14:28:17.746Z</time>
      </trkpt>
      <trkpt lat="50.306430" lon="7.796835">
        <ele>115.116178</ele>
        <time>2022-12-04T14:28:21.736Z</time>
      </trkpt>
      <trkpt lat="50.306485" lon="7.796708">
        <ele>113.220382</ele>
        <time>2022-12-04T14:28:30.740Z</time>
      </trkpt>
      <trkpt lat="50.306548" lon="7.796570">
        <ele>111.124609</ele>
        <time>2022-12-04T14:28:35.743Z</time>
      </trkpt>
      <trkpt lat="50.306608" lon="7.796448">
        <ele>109.222201</ele>
        <time>2022-12-04T14:28:42.738Z</time>
      </trkpt>
      <trkpt lat="50.306688" lon="7.796383">
        <ele>107.478670</ele>
        <time>2022-12-04T14:28:52.799Z</time>
      </trkpt>
      <trkpt lat="50.306778" lon="7.796302">
        <ele>105.470526</ele>
        <time>2022-12-04T14:28:59.737Z</time>
      </trkpt>
      <trkpt lat="50.306868" lon="7.796305">
        <ele>103.729115</ele>
        <time>2022-12-04T14:29:07.742Z</time>
      </trkpt>
      <trkpt lat="50.306973" lon="7.796345">
        <ele>101.638674</ele>
        <time>2022-12-04T14:29:12.739Z</time>
      </trkpt>
      <trkpt lat="50.307015" lon="7.796195">
        <ele>99.615164</ele>
        <time>2022-12-04T14:29:16.741Z</time>
      </trkpt>
      <trkpt lat="50.307102" lon="7.796153">
        <ele>97.854002</ele>
        <time>2022-12-04T14:29:23.742Z</time>
      </trkpt>
      <trkpt lat="50.307190" lon="7.796108">
        <ele>96.063187</ele>
        <time>2022-12-04T14:29:32.738Z</time>
      </trkpt>
      <trkpt lat="50.307275" lon="7.796163">
        <ele>94.284018</ele>
        <time>2022-12-04T14:29:39.812Z</time>
      </trkpt>
      <trkpt lat="50.307352" lon="7.796075">
        <ele>92.439900</ele>
        <time>2022-12-04T14:29:50.746Z</time>
      </trkpt>
      <trkpt lat="50.307430" lon="7.795968">
        <ele>90.949192</ele>
        <time>2022-12-04T14:29:59.743Z</time>
      </trkpt>
      <trkpt lat="50.307505" lon="7.795880">
        <ele>89.672846</ele>
        <time>2022-12-04T14:30:05.741Z</time>
      </trkpt>
      <trkpt lat="50.307575" lon="7.795768">
        <ele>88.309867</ele>
        <time>2022-12-04T14:30:08.738Z</time>
      </trkpt>
      <trkpt lat="50.307647" lon="7.795640">
        <ele>86.826333</ele>
        <time>2022-12-04T14:30:11.741Z</time>
      </trkpt>
      <trkpt lat="50.307742" lon="7.795545">
        <ele>85.291233</ele>
        <time>2022-12-04T14:30:16.741Z</time>
      </trkpt>
      <trkpt lat="50.307843" lon="7.795530">
        <ele>83.909594</ele>
        <time>2022-12-04T14:30:20.743Z</time>
      </trkpt>
      <trkpt lat="50.307852" lon="7.795673">
        <ele>82.659812</ele>
        <time>2022-12-04T14:30:38.786Z</time>
      </trkpt>
      <trkpt lat="50.307913" lon="7.795557">
        <ele>81.352895</ele>
        <time>2022-12-04T14:30:43.740Z</time>
      </trkpt>
      <trkpt lat="50.307987" lon="7.795467">
        <ele>80.076830</ele>
        <time>2022-12-04T14:30:49.748Z</time>
      </trkpt>
      <trkpt lat="50.308112" lon="7.795412">
        <ele>78.308585</ele>
        <time>2022-12-04T14:30:54.742Z</time>
      </trkpt>
      <trkpt lat="50.308212" lon="7.795387">
        <ele>76.929489</ele>
        <time>2022-12-04T14:30:59.743Z</time>
      </trkpt>
      <trkpt lat="50.308310" lon="7.795373">
        <ele>75.589335</ele>
        <time>2022-12-04T14:31:06.742Z</time>
      </trkpt>
      <trkpt lat="50.308397" lon="7.795437">
        <ele>74.280283</ele>
        <time>2022-12-04T14:31:11.745Z</time>
      </trkpt>
      <trkpt lat="50.308490" lon="7.795415">
        <ele>72.999393</ele>
        <time>2022-12-04T14:31:19.784Z</time>
      </trkpt>
      <trkpt lat="50.308583" lon="7.795460">
        <ele>71.673780</ele>
        <time>2022-12-04T14:31:27.743Z</time>
      </trkpt>
      <trkpt lat="50.308647" lon="7.795600">
        <ele>70.176343</ele>
        <time>2022-12-04T14:31:33.744Z</time>
      </trkpt>
      <trkpt lat="50.308672" lon="7.795742">
        <ele>68.895236</ele>
        <time>2022-12-04T14:31:39.799Z</time>
      </trkpt>
      <trkpt lat="50.308765" lon="7.795793">
        <ele>67.698925</ele>
        <time>2022-12-04T14:31:49.782Z</time>
      </trkpt>
      <trkpt lat="50.308858" lon="7.795822">
        <ele>67.890637</ele>
        <time>2022-12-04T14:31:55.781Z</time>
      </trkpt>
      <trkpt lat="50.308943" lon="7.795770">
        <ele>68.075133</ele>
        <time>2022-12-04T14:32:02.746Z</time>
      </trkpt>
      <trkpt lat="50.309033" lon="7.795757">
        <ele>68.257861</ele>
        <time>2022-12-04T14:32:15.778Z</time>
      </trkpt>
      <trkpt lat="50.309125" lon="7.795722">
        <ele>68.449270</ele>
        <time>2022-12-04T14:32:22.741Z</time>
      </trkpt>
      <trkpt lat="50.309202" lon="7.795810">
        <ele>68.641998</ele>
        <time>2022-12-04T14:32:31.739Z</time>
      </trkpt>
      <trkpt lat="50.309272" lon="7.795913">
        <ele>68.836199</ele>
        <time>2022-12-04T14:32:38.750Z</time>
      </trkpt>
      <trkpt lat="50.309363" lon="7.795932">
        <ele>69.021804</ele>
        <time>2022-12-04T14:32:45.769Z</time>
      </trkpt>
      <trkpt lat="50.309453" lon="7.795868">
        <ele>69.221644</ele>
        <time>2022-12-04T14:32:51.740Z</time>
      </trkpt>
      <trkpt lat="50.309543" lon="7.795827">
        <ele>69.411143</ele>
        <time>2022-12-04T14:32:56.740Z</time>
      </trkpt>
      <trkpt lat="50.309642" lon="7.795800">
        <ele>69.614307</ele>
        <time>2022-12-04T14:33:04.739Z</time>
      </trkpt>
      <trkpt lat="50.309732" lon="7.795802">
        <ele>69.796280</ele>
        <time>2022-12-04T14:33:10.745Z</time>
      </trkpt>
      <trkpt lat="50.309790" lon="7.795912">
        <ele>69.980457</ele>
        <time>2022-12-04T14:33:16.743Z</time>
      </trkpt>
      <trkpt lat="50.309880" lon="7.795988">
        <ele>70.187185</ele>
        <time>2022-12-04T14:33:23.792Z</time>
      </trkpt>
      <trkpt lat="50.309975" lon="7.795952">
        <ele>70.384793</ele>
        <time>2022-12-04T14:33:31.744Z</time>
      </trkpt>
      <trkpt lat="50.310072" lon="7.795920">
        <ele>70.585205</ele>
        <time>2022-12-04T14:33:50.744Z</time>
      </trkpt>
      <trkpt lat="50.310177" lon="7.795932">
        <ele>70.798051</ele>
        <time>2022-12-04T14:33:57.742Z</time>
      </trkpt>
      <trkpt lat="50.310263" lon="7.796007">
        <ele>70.997066</ele>
        <time>2022-12-04T14:34:07.749Z</time>
      </trkpt>
      <trkpt lat="50.310362" lon="7.795995">
        <ele>71.197815</ele>
        <time>2022-12-04T14:34:15.805Z</time>
      </trkpt>
      <trkpt lat="50.310457" lon="7.795978">
        <ele>71.316454</ele>
        <time>2022-12-04T14:34:21.742Z</time>
      </trkpt>
      <trkpt lat="50.310547" lon="7.795957">
        <ele>71.316454</ele>
        <time>2022-12-04T14:34:28.739Z</time>
      </trkpt>
      <trkpt lat="50.310647" lon="7.795983">
        <ele>71.316454</ele>
        <time>2022-12-04T14:34:36.743Z</time>
      </trkpt>
      <trkpt lat="50.310733" lon="7.795942">
        <ele>71.316454</ele>
        <time>2022-12-04T14:34:41.744Z</time>
      </trkpt>
      <trkpt lat="50.310830" lon="7.795923">
        <ele>71.316454</ele>
        <time>2022-12-04T14:34:47.732Z</time>
      </trkpt>
      <trkpt lat="50.310925" lon="7.795942">
        <ele>71.316454</ele>
        <time>2022-12-04T14:34:54.743Z</time>
      </trkpt>
      <trkpt lat="50.311007" lon="7.795875">
        <ele>71.316454</ele>
        <time>2022-12-04T14:35:03.737Z</time>
      </trkpt>
      <trkpt lat="50.311053" lon="7.795753">
        <ele>71.316454</ele>
        <time>2022-12-04T14:35:08.738Z</time>
      </trkpt>
      <trkpt lat="50.311143" lon="7.795753">
        <ele>71.316454</ele>
        <time>2022-12-04T14:35:14.738Z</time>
      </trkpt>
      <trkpt lat="50.311202" lon="7.795867">
        <ele>71.316454</ele>
        <time>2022-12-04T14:35:22.739Z</time>
      </trkpt>
      <trkpt lat="50.311285" lon="7.795948">
        <ele>71.316454</ele>
        <time>2022-12-04T14:35:34.737Z</time>
      </trkpt>
      <trkpt lat="50.311345" lon="7.796075">
        <ele>71.316454</ele>
        <time>2022-12-04T14:35:42.735Z</time>
      </trkpt>
      <trkpt lat="50.311380" lon="7.796205">
        <ele>71.316454</ele>
        <time>2022-12-04T14:35:49.731Z</time>
      </trkpt>
      <trkpt lat="50.311437" lon="7.796317">
        <ele>71.316454</ele>
        <time>2022-12-04T14:35:54.737Z</time>
      </trkpt>
      <trkpt lat="50.311495" lon="7.796442">
        <ele>71.316454</ele>
        <time>2022-12-04T14:36:02.738Z</time>
      </trkpt>
      <trkpt lat="50.311545" lon="7.796570">
        <ele>71.316454</ele>
        <time>2022-12-04T14:36:10.739Z</time>
      </trkpt>
      <trkpt lat="50.311628" lon="7.796645">
        <ele>71.316454</ele>
        <time>2022-12-04T14:36:16.740Z</time>
      </trkpt>
      <trkpt lat="50.311693" lon="7.796747">
        <ele>71.316454</ele>
        <time>2022-12-04T14:36:22.740Z</time>
      </trkpt>
      <trkpt lat="50.311755" lon="7.796868">
        <ele>71.316454</ele>
        <time>2022-12-04T14:36:29.776Z</time>
      </trkpt>
      <trkpt lat="50.311762" lon="7.797020">
        <ele>71.316454</ele>
        <time>2022-12-04T14:36:38.737Z</time>
      </trkpt>
      <trkpt lat="50.311843" lon="7.797083">
        <ele>71.316454</ele>
        <time>2022-12-04T14:36:45.743Z</time>
      </trkpt>
      <trkpt lat="50.311932" lon="7.797180">
        <ele>71.316454</ele>
        <time>2022-12-04T14:36:56.715Z</time>
      </trkpt>
      <trkpt lat="50.311948" lon="7.797205">
        <ele>71.316454</ele>
        <time>2022-12-04T14:36:58.602Z</time>
      </trkpt>
    </trkseg>
  </trk>
</gpx>